<?xml version='1.0' encoding='UTF-8'?><gpx version="1.1" creator="JPX - https://github.com/jenetics/jpx" xmlns="http://www.topografix.com/GPX/1/1"><trk><trkseg><trkpt lat="55.1460273" lon="61.4032913"><ele>248.0</ele><time>2026-05-04T14:25:14.025Z</time></trkpt><trkpt lat="55.1461169" lon="61.4033332"><ele>248.0</ele><time>2026-05-04T14:25:16.026Z</time></trkpt><trkpt lat="55.1462044" lon="61.4033669"><ele>248.0</ele><time>2026-05-04T14:25:19.026Z</time></trkpt><trkpt lat="55.1463952" lon="61.4033854"><ele>248.0</ele><time>2026-05-04T14:25:25.025Z</time></trkpt><trkpt lat="55.1464686" lon="61.4034908"><ele>248.0</ele><time>2026-05-04T14:25:27.026Z</time></trkpt><trkpt lat="55.1465315" lon="61.4035273"><ele>248.0</ele><time>2026-05-04T14:25:29.025Z</time></trkpt><trkpt lat="55.1467717" lon="61.4035322"><ele>248.0</ele><time>2026-05-04T14:26:51.026Z</time></trkpt><trkpt lat="55.146885" lon="61.4035712"><ele>248.0</ele><time>2026-05-04T14:26:53.026Z</time></trkpt><trkpt lat="55.1469523" lon="61.4036227"><ele>247.8</ele><time>2026-05-04T14:26:55.026Z</time></trkpt><trkpt lat="55.1470094" lon="61.403719"><ele>247.60000000000002</ele><time>2026-05-04T14:26:57.025Z</time></trkpt><trkpt lat="55.1470301" lon="61.4038507"><ele>247.39999999999998</ele><time>2026-05-04T14:26:59.026Z</time></trkpt><trkpt lat="55.1470873" lon="61.4039207"><ele>247.2</ele><time>2026-05-04T14:27:03.026Z</time></trkpt><trkpt lat="55.1472789" lon="61.4039257"><ele>247.0</ele><time>2026-05-04T14:28:24.026Z</time></trkpt><trkpt lat="55.1473422" lon="61.4039879"><ele>246.8</ele><time>2026-05-04T14:28:27.026Z</time></trkpt><trkpt lat="55.1474378" lon="61.4040251"><ele>246.6</ele><time>2026-05-04T14:28:33.025Z</time></trkpt><trkpt lat="55.1476274" lon="61.4040295"><ele>246.40000000000003</ele><time>2026-05-04T14:28:42.025Z</time></trkpt><trkpt lat="55.1476944" lon="61.4040538"><ele>246.20000000000002</ele><time>2026-05-04T14:28:44.026Z</time></trkpt><trkpt lat="55.1477568" lon="61.4041119"><ele>246.0</ele><time>2026-05-04T14:28:48.025Z</time></trkpt><trkpt lat="55.1478267" lon="61.404143"><ele>246.0</ele><time>2026-05-04T14:28:52.025Z</time></trkpt><trkpt lat="55.1481212" lon="61.4042477"><ele>246.0</ele><time>2026-05-04T14:29:12.025Z</time></trkpt><trkpt lat="55.1481939" lon="61.4042551"><ele>246.0</ele><time>2026-05-04T14:29:15.025Z</time></trkpt><trkpt lat="55.1482662" lon="61.4042875"><ele>246.0</ele><time>2026-05-04T14:29:19.026Z</time></trkpt><trkpt lat="55.1483374" lon="61.4043012"><ele>246.0</ele><time>2026-05-04T14:29:22.026Z</time></trkpt><trkpt lat="55.1484214" lon="61.4043734"><ele>246.00000000000003</ele><time>2026-05-04T14:29:25.025Z</time></trkpt><trkpt lat="55.1484787" lon="61.4044601"><ele>246.00000000000003</ele><time>2026-05-04T14:29:28.025Z</time></trkpt><trkpt lat="55.1485334" lon="61.4045298"><ele>246.0</ele><time>2026-05-04T14:29:31.026Z</time></trkpt><trkpt lat="55.1486054" lon="61.4045956"><ele>246.0</ele><time>2026-05-04T14:29:35.025Z</time></trkpt><trkpt lat="55.1489339" lon="61.4045261"><ele>246.0</ele><time>2026-05-04T14:29:48.025Z</time></trkpt><trkpt lat="55.1490519" lon="61.4045257"><ele>246.00000000000003</ele><time>2026-05-04T14:29:49.026Z</time></trkpt><trkpt lat="55.1491382" lon="61.4044795"><ele>246.00000000000003</ele><time>2026-05-04T14:29:51.025Z</time></trkpt><trkpt lat="55.1491342" lon="61.4043373"><ele>246.0</ele><time>2026-05-04T14:29:54.046Z</time></trkpt><trkpt lat="55.1491158" lon="61.4041943"><ele>246.0</ele><time>2026-05-04T14:29:58.063Z</time></trkpt><trkpt lat="55.1491979" lon="61.4042083"><ele>246.00000000000003</ele><time>2026-05-04T14:30:02.063Z</time></trkpt><trkpt lat="55.1492654" lon="61.4042298"><ele>246.0</ele><time>2026-05-04T14:30:05.063Z</time></trkpt><trkpt lat="55.1492984" lon="61.4041189"><ele>246.00000000000003</ele><time>2026-05-04T14:30:12.062Z</time></trkpt><trkpt lat="55.1493337" lon="61.4040189"><ele>246.00000000000003</ele><time>2026-05-04T14:30:15.062Z</time></trkpt><trkpt lat="55.1493483" lon="61.4039074"><ele>246.0</ele><time>2026-05-04T14:30:24.063Z</time></trkpt><trkpt lat="55.1493884" lon="61.4037938"><ele>246.00000000000003</ele><time>2026-05-04T14:30:31.063Z</time></trkpt><trkpt lat="55.1494378" lon="61.4037111"><ele>246.00000000000003</ele><time>2026-05-04T14:30:34.062Z</time></trkpt><trkpt lat="55.1494978" lon="61.4036343"><ele>246.20000000000002</ele><time>2026-05-04T14:30:37.063Z</time></trkpt><trkpt lat="55.149575" lon="61.4036756"><ele>246.40000000000003</ele><time>2026-05-04T14:30:43.063Z</time></trkpt><trkpt lat="55.1496338" lon="61.4037213"><ele>246.6</ele><time>2026-05-04T14:30:46.063Z</time></trkpt><trkpt lat="55.1496954" lon="61.4037462"><ele>246.8</ele><time>2026-05-04T14:30:49.063Z</time></trkpt><trkpt lat="55.1497728" lon="61.403779"><ele>247.0</ele><time>2026-05-04T14:30:53.063Z</time></trkpt><trkpt lat="55.1499766" lon="61.4038381"><ele>246.6</ele><time>2026-05-04T14:31:05.063Z</time></trkpt><trkpt lat="55.1501322" lon="61.4038326"><ele>246.2</ele><time>2026-05-04T14:31:12.063Z</time></trkpt><trkpt lat="55.150202" lon="61.4038594"><ele>245.8</ele><time>2026-05-04T14:31:15.062Z</time></trkpt><trkpt lat="55.1502889" lon="61.4038879"><ele>245.4</ele><time>2026-05-04T14:31:18.062Z</time></trkpt><trkpt lat="55.1503604" lon="61.4039299"><ele>245.0</ele><time>2026-05-04T14:31:21.063Z</time></trkpt><trkpt lat="55.1504213" lon="61.4039875"><ele>245.00000000000003</ele><time>2026-05-04T14:31:23.062Z</time></trkpt><trkpt lat="55.1505127" lon="61.404045"><ele>245.0</ele><time>2026-05-04T14:31:26.062Z</time></trkpt><trkpt lat="55.1505969" lon="61.4040501"><ele>245.0</ele><time>2026-05-04T14:31:30.062Z</time></trkpt><trkpt lat="55.1506972" lon="61.4040553"><ele>245.0</ele><time>2026-05-04T14:31:35.063Z</time></trkpt><trkpt lat="55.1507638" lon="61.404141"><ele>245.00000000000003</ele><time>2026-05-04T14:31:38.062Z</time></trkpt><trkpt lat="55.1508129" lon="61.4042352"><ele>245.0</ele><time>2026-05-04T14:31:43.063Z</time></trkpt><trkpt lat="55.1508667" lon="61.4044452"><ele>245.16666666666669</ele><time>2026-05-04T14:32:28.063Z</time></trkpt><trkpt lat="55.150929" lon="61.4045949"><ele>245.33333333333334</ele><time>2026-05-04T14:32:30.063Z</time></trkpt><trkpt lat="55.1510003" lon="61.4045832"><ele>245.5</ele><time>2026-05-04T14:32:44.063Z</time></trkpt><trkpt lat="55.15106" lon="61.404468"><ele>245.66666666666669</ele><time>2026-05-04T14:32:48.063Z</time></trkpt><trkpt lat="55.1511228" lon="61.4045456"><ele>245.83333333333334</ele><time>2026-05-04T14:32:58.062Z</time></trkpt><trkpt lat="55.1512096" lon="61.4045695"><ele>246.0</ele><time>2026-05-04T14:33:01.063Z</time></trkpt><trkpt lat="55.1512743" lon="61.4045832"><ele>246.28571428571433</ele><time>2026-05-04T14:33:03.062Z</time></trkpt><trkpt lat="55.1513222" lon="61.4047253"><ele>246.57142857142858</ele><time>2026-05-04T14:33:20.062Z</time></trkpt><trkpt lat="55.1513221" lon="61.4048392"><ele>246.8571428571429</ele><time>2026-05-04T14:33:27.062Z</time></trkpt><trkpt lat="55.1513283" lon="61.4049711"><ele>247.14285714285717</ele><time>2026-05-04T14:33:33.062Z</time></trkpt><trkpt lat="55.1513242" lon="61.4050817"><ele>247.42857142857144</ele><time>2026-05-04T14:33:42.063Z</time></trkpt><trkpt lat="55.1513859" lon="61.4050535"><ele>247.71428571428572</ele><time>2026-05-04T14:34:09.062Z</time></trkpt><trkpt lat="55.1514547" lon="61.4050437"><ele>248.0</ele><time>2026-05-04T14:34:12.063Z</time></trkpt><trkpt lat="55.1512769" lon="61.4047181"><ele>248.0</ele><time>2026-05-04T14:34:14.067Z</time></trkpt><trkpt lat="55.1513414" lon="61.4047416"><ele>248.0</ele><time>2026-05-04T14:34:25.063Z</time></trkpt><trkpt lat="55.1513959" lon="61.4048157"><ele>248.0</ele><time>2026-05-04T14:34:36.062Z</time></trkpt><trkpt lat="55.1514597" lon="61.4048731"><ele>248.0</ele><time>2026-05-04T14:34:46.063Z</time></trkpt><trkpt lat="55.1516119" lon="61.4049431"><ele>248.0</ele><time>2026-05-04T14:34:52.039Z</time></trkpt><trkpt lat="55.1519557" lon="61.4050118"><ele>248.4</ele><time>2026-05-04T14:34:53.063Z</time></trkpt><trkpt lat="55.152027" lon="61.4050117"><ele>248.8</ele><time>2026-05-04T14:34:54.977Z</time></trkpt><trkpt lat="55.1520598" lon="61.4049166"><ele>249.2</ele><time>2026-05-04T14:35:05.052Z</time></trkpt><trkpt lat="55.152226" lon="61.4046743"><ele>249.6</ele><time>2026-05-04T14:35:22.063Z</time></trkpt><trkpt lat="55.1522871" lon="61.4045461"><ele>250.0</ele><time>2026-05-04T14:35:23.063Z</time></trkpt><trkpt lat="55.1523659" lon="61.4043944"><ele>250.0</ele><time>2026-05-04T14:35:23.85Z</time></trkpt><trkpt lat="55.1524576" lon="61.4042004"><ele>250.0</ele><time>2026-05-04T14:35:25.063Z</time></trkpt><trkpt lat="55.1524842" lon="61.4040958"><ele>250.0</ele><time>2026-05-04T14:35:28.062Z</time></trkpt><trkpt lat="55.152465" lon="61.4039221"><ele>250.0</ele><time>2026-05-04T14:35:34.062Z</time></trkpt><trkpt lat="55.1524633" lon="61.4036821"><ele>250.0</ele><time>2026-05-04T14:36:12.935Z</time></trkpt><trkpt lat="55.1525236" lon="61.4036172"><ele>250.0</ele><time>2026-05-04T14:36:39.017Z</time></trkpt><trkpt lat="55.1525666" lon="61.4037087"><ele>250.0</ele><time>2026-05-04T14:36:47.063Z</time></trkpt><trkpt lat="55.1526606" lon="61.4037487"><ele>250.0</ele><time>2026-05-04T14:37:01.062Z</time></trkpt><trkpt lat="55.1527258" lon="61.403779"><ele>250.0</ele><time>2026-05-04T14:37:07.062Z</time></trkpt><trkpt lat="55.1527726" lon="61.4036742"><ele>250.0</ele><time>2026-05-04T14:37:19.062Z</time></trkpt><trkpt lat="55.1528376" lon="61.4036185"><ele>250.0</ele><time>2026-05-04T14:37:30.062Z</time></trkpt><trkpt lat="55.152898" lon="61.4035627"><ele>250.0</ele><time>2026-05-04T14:37:34.062Z</time></trkpt><trkpt lat="55.152958" lon="61.403492"><ele>249.99999999999997</ele><time>2026-05-04T14:37:40.063Z</time></trkpt><trkpt lat="55.1530134" lon="61.4034335"><ele>250.0</ele><time>2026-05-04T14:37:55.015Z</time></trkpt><trkpt lat="55.1530502" lon="61.4033366"><ele>250.0</ele><time>2026-05-04T14:38:02.021Z</time></trkpt><trkpt lat="55.153094" lon="61.4032447"><ele>250.0</ele><time>2026-05-04T14:38:09.978Z</time></trkpt><trkpt lat="55.1532097" lon="61.4030776"><ele>249.99999999999997</ele><time>2026-05-04T14:38:24.063Z</time></trkpt><trkpt lat="55.1532738" lon="61.4030622"><ele>250.0</ele><time>2026-05-04T14:38:29.062Z</time></trkpt><trkpt lat="55.1533396" lon="61.4030497"><ele>250.14285714285714</ele><time>2026-05-04T14:38:33.062Z</time></trkpt><trkpt lat="55.1534003" lon="61.4030178"><ele>250.28571428571428</ele><time>2026-05-04T14:38:40.063Z</time></trkpt><trkpt lat="55.1534701" lon="61.403012"><ele>250.42857142857142</ele><time>2026-05-04T14:38:58.915Z</time></trkpt><trkpt lat="55.153532" lon="61.4030327"><ele>250.57142857142856</ele><time>2026-05-04T14:39:03.938Z</time></trkpt><trkpt lat="55.1535972" lon="61.4030081"><ele>250.71428571428572</ele><time>2026-05-04T14:39:11.062Z</time></trkpt><trkpt lat="55.1536579" lon="61.4030551"><ele>250.85714285714283</ele><time>2026-05-04T14:39:17.053Z</time></trkpt><trkpt lat="55.1537215" lon="61.4031243"><ele>250.99999999999997</ele><time>2026-05-04T14:39:23.063Z</time></trkpt><trkpt lat="55.1537635" lon="61.4032208"><ele>250.99999999999997</ele><time>2026-05-04T14:39:30.063Z</time></trkpt><trkpt lat="55.1538128" lon="61.4033162"><ele>251.0</ele><time>2026-05-04T14:39:40.063Z</time></trkpt><trkpt lat="55.1538715" lon="61.4033696"><ele>250.99999999999997</ele><time>2026-05-04T14:39:56.062Z</time></trkpt><trkpt lat="55.153935" lon="61.4034103"><ele>250.99999999999997</ele><time>2026-05-04T14:40:06.062Z</time></trkpt><trkpt lat="55.1540003" lon="61.4034438"><ele>251.0</ele><time>2026-05-04T14:40:18.062Z</time></trkpt><trkpt lat="55.1540007" lon="61.4035602"><ele>250.99999999999997</ele><time>2026-05-04T14:40:26.062Z</time></trkpt><trkpt lat="55.1540191" lon="61.4036713"><ele>250.99999999999997</ele><time>2026-05-04T14:40:32.063Z</time></trkpt><trkpt lat="55.1540338" lon="61.4038022"><ele>251.1428571428571</ele><time>2026-05-04T14:40:38.062Z</time></trkpt><trkpt lat="55.1540426" lon="61.4039147"><ele>251.28571428571428</ele><time>2026-05-04T14:40:46.063Z</time></trkpt><trkpt lat="55.1540454" lon="61.4040436"><ele>251.42857142857142</ele><time>2026-05-04T14:40:53.013Z</time></trkpt><trkpt lat="55.1540545" lon="61.4041691"><ele>251.57142857142856</ele><time>2026-05-04T14:41:44.063Z</time></trkpt><trkpt lat="55.1541238" lon="61.4041449"><ele>251.71428571428572</ele><time>2026-05-04T14:42:56.015Z</time></trkpt><trkpt lat="55.1541692" lon="61.4040636"><ele>251.85714285714286</ele><time>2026-05-04T14:43:03.063Z</time></trkpt><trkpt lat="55.1542301" lon="61.4040354"><ele>252.0</ele><time>2026-05-04T14:43:21.063Z</time></trkpt><trkpt lat="55.1542731" lon="61.4039548"><ele>252.0</ele><time>2026-05-04T14:43:29.879Z</time></trkpt><trkpt lat="55.1543313" lon="61.4038603"><ele>252.0</ele><time>2026-05-04T14:43:34.062Z</time></trkpt><trkpt lat="55.1543774" lon="61.4037734"><ele>252.0</ele><time>2026-05-04T14:43:37.063Z</time></trkpt><trkpt lat="55.1546675" lon="61.403683"><ele>252.0</ele><time>2026-05-04T14:43:39.063Z</time></trkpt><trkpt lat="55.1547444" lon="61.4036538"><ele>251.83333333333334</ele><time>2026-05-04T14:43:43.062Z</time></trkpt><trkpt lat="55.154812" lon="61.4036203"><ele>251.66666666666669</ele><time>2026-05-04T14:43:46.062Z</time></trkpt><trkpt lat="55.1548965" lon="61.4035833"><ele>251.5</ele><time>2026-05-04T14:43:49.063Z</time></trkpt><trkpt lat="55.1549732" lon="61.4035163"><ele>251.33333333333334</ele><time>2026-05-04T14:43:52.063Z</time></trkpt><trkpt lat="55.15504" lon="61.4034677"><ele>251.16666666666669</ele><time>2026-05-04T14:43:55.063Z</time></trkpt><trkpt lat="55.155118" lon="61.4034341"><ele>251.0</ele><time>2026-05-04T14:43:59.062Z</time></trkpt><trkpt lat="55.1551823" lon="61.4034473"><ele>250.66666666666669</ele><time>2026-05-04T14:44:02.062Z</time></trkpt><trkpt lat="55.1552584" lon="61.4034575"><ele>250.33333333333334</ele><time>2026-05-04T14:44:05.062Z</time></trkpt><trkpt lat="55.1553261" lon="61.4034629"><ele>250.0</ele><time>2026-05-04T14:44:08.062Z</time></trkpt><trkpt lat="55.1553918" lon="61.4034988"><ele>249.66666666666669</ele><time>2026-05-04T14:44:11.062Z</time></trkpt><trkpt lat="55.1554655" lon="61.4035433"><ele>249.33333333333334</ele><time>2026-05-04T14:44:15.063Z</time></trkpt><trkpt lat="55.1555412" lon="61.403575"><ele>249.0</ele><time>2026-05-04T14:44:19.063Z</time></trkpt><trkpt lat="55.1556994" lon="61.4035727"><ele>248.79999999999998</ele><time>2026-05-04T14:44:31.062Z</time></trkpt><trkpt lat="55.1557607" lon="61.4036218"><ele>248.59999999999997</ele><time>2026-05-04T14:44:35.062Z</time></trkpt><trkpt lat="55.1558065" lon="61.4037096"><ele>248.4</ele><time>2026-05-04T14:44:40.062Z</time></trkpt><trkpt lat="55.1558624" lon="61.4036311"><ele>248.2</ele><time>2026-05-04T14:44:53.062Z</time></trkpt><trkpt lat="55.1558663" lon="61.4035206"><ele>248.0</ele><time>2026-05-04T14:45:03.062Z</time></trkpt><trkpt lat="55.1555715" lon="61.402896"><ele>248.0</ele><time>2026-05-04T14:45:22.062Z</time></trkpt><trkpt lat="55.1555254" lon="61.4028015"><ele>248.00000000000003</ele><time>2026-05-04T14:45:24.063Z</time></trkpt><trkpt lat="55.1555067" lon="61.4026883"><ele>248.0</ele><time>2026-05-04T14:45:26.063Z</time></trkpt><trkpt lat="55.1554968" lon="61.4025722"><ele>248.0</ele><time>2026-05-04T14:45:29.063Z</time></trkpt><trkpt lat="55.1554925" lon="61.4024545"><ele>248.00000000000003</ele><time>2026-05-04T14:45:32.063Z</time></trkpt><trkpt lat="55.1554788" lon="61.402315"><ele>248.0</ele><time>2026-05-04T14:45:35.063Z</time></trkpt><trkpt lat="55.1554413" lon="61.4022037"><ele>248.0</ele><time>2026-05-04T14:45:38.063Z</time></trkpt><trkpt lat="55.1554292" lon="61.4020733"><ele>248.0</ele><time>2026-05-04T14:45:41.063Z</time></trkpt><trkpt lat="55.1554609" lon="61.4019454"><ele>248.0</ele><time>2026-05-04T14:45:45.063Z</time></trkpt><trkpt lat="55.1556027" lon="61.4016706"><ele>248.0</ele><time>2026-05-04T14:45:55.063Z</time></trkpt><trkpt lat="55.1556345" lon="61.401564"><ele>248.0</ele><time>2026-05-04T14:46:02.062Z</time></trkpt><trkpt lat="55.1556404" lon="61.4014327"><ele>248.0</ele><time>2026-05-04T14:46:10.062Z</time></trkpt><trkpt lat="55.1557019" lon="61.4012399"><ele>247.50000000000003</ele><time>2026-05-04T14:46:21.062Z</time></trkpt><trkpt lat="55.155762" lon="61.4011983"><ele>247.0</ele><time>2026-05-04T14:46:24.063Z</time></trkpt><trkpt lat="55.155832" lon="61.4011884"><ele>246.5</ele><time>2026-05-04T14:46:26.062Z</time></trkpt><trkpt lat="55.1559051" lon="61.401163"><ele>246.0</ele><time>2026-05-04T14:46:29.063Z</time></trkpt><trkpt lat="55.1560008" lon="61.4010929"><ele>245.50000000000003</ele><time>2026-05-04T14:46:38.063Z</time></trkpt><trkpt lat="55.156005" lon="61.400962"><ele>245.0</ele><time>2026-05-04T14:46:41.063Z</time></trkpt><trkpt lat="55.1560111" lon="61.4008278"><ele>245.00000000000003</ele><time>2026-05-04T14:46:45.062Z</time></trkpt><trkpt lat="55.1560022" lon="61.4007094"><ele>245.0</ele><time>2026-05-04T14:46:52.063Z</time></trkpt><trkpt lat="55.1559988" lon="61.4005993"><ele>245.0</ele><time>2026-05-04T14:46:57.062Z</time></trkpt><trkpt lat="55.1559682" lon="61.4004443"><ele>245.0</ele><time>2026-05-04T14:47:06.063Z</time></trkpt><trkpt lat="55.1559648" lon="61.4002759"><ele>245.00000000000003</ele><time>2026-05-04T14:47:09.063Z</time></trkpt><trkpt lat="55.1559659" lon="61.4001442"><ele>245.0</ele><time>2026-05-04T14:47:11.063Z</time></trkpt><trkpt lat="55.1559647" lon="61.4000274"><ele>245.16666666666669</ele><time>2026-05-04T14:47:13.063Z</time></trkpt><trkpt lat="55.1559617" lon="61.3999165"><ele>245.33333333333334</ele><time>2026-05-04T14:47:15.062Z</time></trkpt><trkpt lat="55.1559326" lon="61.3997483"><ele>245.5</ele><time>2026-05-04T14:47:16.062Z</time></trkpt><trkpt lat="55.1559303" lon="61.3996352"><ele>245.66666666666669</ele><time>2026-05-04T14:47:19.062Z</time></trkpt><trkpt lat="55.1559128" lon="61.3995044"><ele>245.83333333333334</ele><time>2026-05-04T14:47:22.062Z</time></trkpt><trkpt lat="55.1558891" lon="61.3993757"><ele>246.0</ele><time>2026-05-04T14:47:25.063Z</time></trkpt><trkpt lat="55.1558811" lon="61.3992462"><ele>246.00000000000003</ele><time>2026-05-04T14:47:28.062Z</time></trkpt><trkpt lat="55.1558674" lon="61.3991245"><ele>246.0</ele><time>2026-05-04T14:47:31.062Z</time></trkpt><trkpt lat="55.1558571" lon="61.399003"><ele>246.00000000000003</ele><time>2026-05-04T14:47:37.063Z</time></trkpt><trkpt lat="55.1558184" lon="61.3989047"><ele>246.00000000000003</ele><time>2026-05-04T14:47:45.062Z</time></trkpt><trkpt lat="55.1557581" lon="61.3988153"><ele>246.0</ele><time>2026-05-04T14:48:15.063Z</time></trkpt><trkpt lat="55.155742" lon="61.3986936"><ele>246.00000000000003</ele><time>2026-05-04T14:48:22.063Z</time></trkpt><trkpt lat="55.1558054" lon="61.3987058"><ele>246.00000000000003</ele><time>2026-05-04T14:49:02.062Z</time></trkpt><trkpt lat="55.155871" lon="61.398685"><ele>246.0</ele><time>2026-05-04T14:49:12.063Z</time></trkpt><trkpt lat="55.1561038" lon="61.3987144"><ele>246.0</ele><time>2026-05-04T14:49:21.063Z</time></trkpt><trkpt lat="55.1562067" lon="61.398739"><ele>246.0</ele><time>2026-05-04T14:49:22.062Z</time></trkpt><trkpt lat="55.1562871" lon="61.3987513"><ele>246.0</ele><time>2026-05-04T14:49:24.063Z</time></trkpt><trkpt lat="55.1563713" lon="61.3987576"><ele>246.00000000000003</ele><time>2026-05-04T14:49:28.062Z</time></trkpt><trkpt lat="55.1564392" lon="61.3987522"><ele>246.0</ele><time>2026-05-04T14:49:31.063Z</time></trkpt><trkpt lat="55.1565052" lon="61.3987495"><ele>246.00000000000003</ele><time>2026-05-04T14:49:34.062Z</time></trkpt><trkpt lat="55.1565718" lon="61.3987507"><ele>246.00000000000003</ele><time>2026-05-04T14:49:37.063Z</time></trkpt><trkpt lat="55.1566443" lon="61.3987047"><ele>246.0</ele><time>2026-05-04T14:49:41.063Z</time></trkpt><trkpt lat="55.1567051" lon="61.3986529"><ele>246.00000000000003</ele><time>2026-05-04T14:49:45.063Z</time></trkpt><trkpt lat="55.1567747" lon="61.3986172"><ele>246.00000000000003</ele><time>2026-05-04T14:49:50.062Z</time></trkpt><trkpt lat="55.1568586" lon="61.398619"><ele>245.71428571428575</ele><time>2026-05-04T14:49:54.063Z</time></trkpt><trkpt lat="55.1569216" lon="61.3986271"><ele>245.42857142857144</ele><time>2026-05-04T14:49:57.062Z</time></trkpt><trkpt lat="55.1569843" lon="61.3985604"><ele>245.14285714285714</ele><time>2026-05-04T14:50:01.063Z</time></trkpt><trkpt lat="55.1570171" lon="61.3984325"><ele>244.85714285714286</ele><time>2026-05-04T14:50:05.062Z</time></trkpt><trkpt lat="55.157063" lon="61.398346"><ele>244.57142857142856</ele><time>2026-05-04T14:50:08.062Z</time></trkpt><trkpt lat="55.1571116" lon="61.3982431"><ele>244.28571428571425</ele><time>2026-05-04T14:50:11.063Z</time></trkpt><trkpt lat="55.1571643" lon="61.3981571"><ele>243.99999999999997</ele><time>2026-05-04T14:50:14.063Z</time></trkpt><trkpt lat="55.1572224" lon="61.3980567"><ele>243.99999999999997</ele><time>2026-05-04T14:50:17.041Z</time></trkpt><trkpt lat="55.1572871" lon="61.3979742"><ele>244.0</ele><time>2026-05-04T14:50:20.047Z</time></trkpt><trkpt lat="55.1573306" lon="61.3978799"><ele>243.99999999999997</ele><time>2026-05-04T14:50:23.038Z</time></trkpt><trkpt lat="55.1573643" lon="61.3977737"><ele>243.99999999999997</ele><time>2026-05-04T14:50:26.037Z</time></trkpt><trkpt lat="55.1573855" lon="61.3976502"><ele>244.0</ele><time>2026-05-04T14:50:29.037Z</time></trkpt><trkpt lat="55.1574126" lon="61.3975148"><ele>243.99999999999997</ele><time>2026-05-04T14:50:32.037Z</time></trkpt><trkpt lat="55.1574281" lon="61.3974052"><ele>243.99999999999997</ele><time>2026-05-04T14:50:35.038Z</time></trkpt><trkpt lat="55.1574374" lon="61.3972961"><ele>242.83333333333331</ele><time>2026-05-04T14:50:48.037Z</time></trkpt><trkpt lat="55.1574886" lon="61.3971463"><ele>241.66666666666666</ele><time>2026-05-04T14:50:56.037Z</time></trkpt><trkpt lat="55.1575326" lon="61.397062"><ele>240.5</ele><time>2026-05-04T14:51:00.038Z</time></trkpt><trkpt lat="55.1575728" lon="61.3969719"><ele>239.33333333333331</ele><time>2026-05-04T14:51:04.924Z</time></trkpt><trkpt lat="55.1576504" lon="61.3969604"><ele>238.16666666666666</ele><time>2026-05-04T14:51:12.038Z</time></trkpt><trkpt lat="55.1577227" lon="61.3969729"><ele>237.0</ele><time>2026-05-04T14:51:39.038Z</time></trkpt><trkpt lat="55.1577676" lon="61.3968677"><ele>237.0</ele><time>2026-05-04T14:51:42.038Z</time></trkpt><trkpt lat="55.1578013" lon="61.3967152"><ele>237.0</ele><time>2026-05-04T14:51:45.037Z</time></trkpt><trkpt lat="55.1578224" lon="61.3965881"><ele>237.0</ele><time>2026-05-04T14:51:47.038Z</time></trkpt><trkpt lat="55.1578444" lon="61.3964839"><ele>237.0</ele><time>2026-05-04T14:51:49.046Z</time></trkpt><trkpt lat="55.1578558" lon="61.3963401"><ele>237.0</ele><time>2026-05-04T14:51:52.045Z</time></trkpt><trkpt lat="55.1578663" lon="61.3961444"><ele>237.0</ele><time>2026-05-04T14:51:55.038Z</time></trkpt><trkpt lat="55.157881" lon="61.3960224"><ele>237.66666666666666</ele><time>2026-05-04T14:51:58.037Z</time></trkpt><trkpt lat="55.1578982" lon="61.3959146"><ele>238.33333333333331</ele><time>2026-05-04T14:52:01.037Z</time></trkpt><trkpt lat="55.1579056" lon="61.3957626"><ele>239.0</ele><time>2026-05-04T14:52:04.038Z</time></trkpt><trkpt lat="55.157914" lon="61.3956194"><ele>239.66666666666666</ele><time>2026-05-04T14:52:07.037Z</time></trkpt><trkpt lat="55.1579282" lon="61.3954722"><ele>240.33333333333331</ele><time>2026-05-04T14:52:10.038Z</time></trkpt><trkpt lat="55.1579564" lon="61.3952959"><ele>241.0</ele><time>2026-05-04T14:52:13.038Z</time></trkpt><trkpt lat="55.1579652" lon="61.3951521"><ele>241.0</ele><time>2026-05-04T14:52:15.037Z</time></trkpt><trkpt lat="55.1579793" lon="61.3950144"><ele>241.00000000000003</ele><time>2026-05-04T14:52:17.038Z</time></trkpt><trkpt lat="55.1579904" lon="61.3948851"><ele>241.0</ele><time>2026-05-04T14:52:19.037Z</time></trkpt><trkpt lat="55.1579819" lon="61.3947752"><ele>241.0</ele><time>2026-05-04T14:52:21.037Z</time></trkpt><trkpt lat="55.1579751" lon="61.3946593"><ele>241.00000000000003</ele><time>2026-05-04T14:52:23.037Z</time></trkpt><trkpt lat="55.157973" lon="61.3945484"><ele>241.0</ele><time>2026-05-04T14:52:25.037Z</time></trkpt><trkpt lat="55.1579618" lon="61.3944156"><ele>241.0</ele><time>2026-05-04T14:52:28.037Z</time></trkpt><trkpt lat="55.1579568" lon="61.3942829"><ele>240.85714285714286</ele><time>2026-05-04T14:52:32.038Z</time></trkpt><trkpt lat="55.1579553" lon="61.3941674"><ele>240.71428571428572</ele><time>2026-05-04T14:52:35.037Z</time></trkpt><trkpt lat="55.1579907" lon="61.3940757"><ele>240.57142857142858</ele><time>2026-05-04T14:52:45.038Z</time></trkpt><trkpt lat="55.1580981" lon="61.3940737"><ele>240.42857142857144</ele><time>2026-05-04T14:53:40.038Z</time></trkpt><trkpt lat="55.1581284" lon="61.3939736"><ele>240.28571428571428</ele><time>2026-05-04T14:53:47.038Z</time></trkpt><trkpt lat="55.1581895" lon="61.3939039"><ele>240.14285714285717</ele><time>2026-05-04T14:53:57.038Z</time></trkpt><trkpt lat="55.1582543" lon="61.3938731"><ele>240.0</ele><time>2026-05-04T14:54:12.037Z</time></trkpt><trkpt lat="55.1583183" lon="61.3938793"><ele>239.71428571428572</ele><time>2026-05-04T14:54:19.038Z</time></trkpt><trkpt lat="55.1583855" lon="61.3938967"><ele>239.42857142857142</ele><time>2026-05-04T14:54:29.058Z</time></trkpt><trkpt lat="55.1584576" lon="61.3938827"><ele>239.14285714285714</ele><time>2026-05-04T14:54:37.038Z</time></trkpt><trkpt lat="55.1585241" lon="61.393881"><ele>238.85714285714286</ele><time>2026-05-04T14:54:43.038Z</time></trkpt><trkpt lat="55.1585869" lon="61.3938943"><ele>238.57142857142856</ele><time>2026-05-04T14:54:49.002Z</time></trkpt><trkpt lat="55.1586494" lon="61.3939157"><ele>238.28571428571428</ele><time>2026-05-04T14:54:55.037Z</time></trkpt><trkpt lat="55.1587199" lon="61.3939299"><ele>238.0</ele><time>2026-05-04T14:55:03.038Z</time></trkpt><trkpt lat="55.1587831" lon="61.3939084"><ele>238.0</ele><time>2026-05-04T14:55:11.072Z</time></trkpt><trkpt lat="55.1588457" lon="61.3938932"><ele>238.0</ele><time>2026-05-04T14:55:19.038Z</time></trkpt><trkpt lat="55.1589172" lon="61.3938708"><ele>238.0</ele><time>2026-05-04T14:55:25.038Z</time></trkpt><trkpt lat="55.1589796" lon="61.3938491"><ele>238.0</ele><time>2026-05-04T14:55:31.038Z</time></trkpt><trkpt lat="55.1590399" lon="61.3938098"><ele>238.0</ele><time>2026-05-04T14:55:38.04Z</time></trkpt><trkpt lat="55.159099" lon="61.3937605"><ele>238.0</ele><time>2026-05-04T14:55:45.037Z</time></trkpt><trkpt lat="55.1591619" lon="61.3937746"><ele>238.0</ele><time>2026-05-04T14:55:52.037Z</time></trkpt><trkpt lat="55.1592299" lon="61.3938044"><ele>237.85714285714286</ele><time>2026-05-04T14:55:59.038Z</time></trkpt><trkpt lat="55.1592942" lon="61.393835"><ele>237.71428571428572</ele><time>2026-05-04T14:56:25.038Z</time></trkpt><trkpt lat="55.1593554" lon="61.393808"><ele>237.57142857142856</ele><time>2026-05-04T14:56:30.962Z</time></trkpt><trkpt lat="55.1594251" lon="61.3937792"><ele>237.42857142857142</ele><time>2026-05-04T14:56:36.959Z</time></trkpt><trkpt lat="55.1594729" lon="61.3938817"><ele>237.28571428571428</ele><time>2026-05-04T14:56:47.037Z</time></trkpt><trkpt lat="55.1595417" lon="61.393852"><ele>237.1428571428571</ele><time>2026-05-04T14:56:53.037Z</time></trkpt><trkpt lat="55.1596123" lon="61.3938612"><ele>236.99999999999997</ele><time>2026-05-04T14:57:03.037Z</time></trkpt><trkpt lat="55.1596809" lon="61.3938623"><ele>236.99999999999997</ele><time>2026-05-04T14:57:08.038Z</time></trkpt><trkpt lat="55.1597481" lon="61.3938476"><ele>237.0</ele><time>2026-05-04T14:57:13.038Z</time></trkpt><trkpt lat="55.1598127" lon="61.3938373"><ele>236.99999999999997</ele><time>2026-05-04T14:57:19.993Z</time></trkpt><trkpt lat="55.1598721" lon="61.393785"><ele>236.99999999999997</ele><time>2026-05-04T14:57:27.038Z</time></trkpt><trkpt lat="55.159904" lon="61.3938826"><ele>237.0</ele><time>2026-05-04T14:58:02.038Z</time></trkpt><trkpt lat="55.1599696" lon="61.3938833"><ele>236.99999999999997</ele><time>2026-05-04T14:58:44.038Z</time></trkpt><trkpt lat="55.1600441" lon="61.3938567"><ele>236.99999999999997</ele><time>2026-05-04T14:58:49.037Z</time></trkpt><trkpt lat="55.1601146" lon="61.393829"><ele>236.28571428571425</ele><time>2026-05-04T14:58:53.038Z</time></trkpt><trkpt lat="55.1601935" lon="61.3938316"><ele>235.57142857142856</ele><time>2026-05-04T14:58:58.076Z</time></trkpt><trkpt lat="55.160262" lon="61.3938542"><ele>234.85714285714286</ele><time>2026-05-04T14:59:03.038Z</time></trkpt><trkpt lat="55.1603226" lon="61.3938105"><ele>234.14285714285714</ele><time>2026-05-04T14:59:26.038Z</time></trkpt><trkpt lat="55.1603513" lon="61.3937036"><ele>233.42857142857144</ele><time>2026-05-04T14:59:30.939Z</time></trkpt><trkpt lat="55.1603444" lon="61.3935745"><ele>232.71428571428575</ele><time>2026-05-04T14:59:35.976Z</time></trkpt><trkpt lat="55.1603354" lon="61.393447"><ele>232.00000000000003</ele><time>2026-05-04T14:59:41.025Z</time></trkpt><trkpt lat="55.1603266" lon="61.3933363"><ele>231.8</ele><time>2026-05-04T14:59:46.037Z</time></trkpt><trkpt lat="55.1603406" lon="61.3931389"><ele>231.6</ele><time>2026-05-04T15:00:21.028Z</time></trkpt><trkpt lat="55.160376" lon="61.3930288"><ele>231.40000000000003</ele><time>2026-05-04T15:00:25.043Z</time></trkpt><trkpt lat="55.1604429" lon="61.3929025"><ele>231.20000000000002</ele><time>2026-05-04T15:00:30.038Z</time></trkpt><trkpt lat="55.160496" lon="61.3928283"><ele>231.0</ele><time>2026-05-04T15:00:32.05Z</time></trkpt><trkpt lat="55.1605728" lon="61.3927047"><ele>231.0</ele><time>2026-05-04T15:00:34.037Z</time></trkpt><trkpt lat="55.1606229" lon="61.392606"><ele>231.00000000000003</ele><time>2026-05-04T15:00:36.021Z</time></trkpt><trkpt lat="55.1606353" lon="61.3924026"><ele>231.00000000000003</ele><time>2026-05-04T15:00:38.037Z</time></trkpt><trkpt lat="55.1606572" lon="61.3922576"><ele>231.0</ele><time>2026-05-04T15:00:40.037Z</time></trkpt><trkpt lat="55.1606685" lon="61.3921388"><ele>231.0</ele><time>2026-05-04T15:00:41.98Z</time></trkpt><trkpt lat="55.1606073" lon="61.3919015"><ele>231.16666666666666</ele><time>2026-05-04T15:00:44.037Z</time></trkpt><trkpt lat="55.1606364" lon="61.3917968"><ele>231.33333333333331</ele><time>2026-05-04T15:00:47.038Z</time></trkpt><trkpt lat="55.1607057" lon="61.3917817"><ele>231.5</ele><time>2026-05-04T15:00:51.038Z</time></trkpt><trkpt lat="55.1607279" lon="61.3918954"><ele>231.66666666666666</ele><time>2026-05-04T15:00:54.038Z</time></trkpt><trkpt lat="55.1607687" lon="61.3920484"><ele>231.83333333333331</ele><time>2026-05-04T15:00:57.038Z</time></trkpt><trkpt lat="55.1608232" lon="61.3921502"><ele>232.0</ele><time>2026-05-04T15:00:59.038Z</time></trkpt><trkpt lat="55.1608909" lon="61.392269"><ele>231.00000000000003</ele><time>2026-05-04T15:01:01.037Z</time></trkpt><trkpt lat="55.1609617" lon="61.3923404"><ele>230.0</ele><time>2026-05-04T15:01:03.038Z</time></trkpt><trkpt lat="55.1610155" lon="61.3924246"><ele>229.00000000000003</ele><time>2026-05-04T15:01:05.037Z</time></trkpt><trkpt lat="55.1610798" lon="61.392476"><ele>228.00000000000003</ele><time>2026-05-04T15:01:07.038Z</time></trkpt><trkpt lat="55.161153" lon="61.3924956"><ele>227.0</ele><time>2026-05-04T15:01:09.037Z</time></trkpt><trkpt lat="55.1612223" lon="61.3924761"><ele>226.00000000000003</ele><time>2026-05-04T15:01:11.037Z</time></trkpt><trkpt lat="55.161295" lon="61.3924749"><ele>225.00000000000003</ele><time>2026-05-04T15:01:13.038Z</time></trkpt><trkpt lat="55.1613842" lon="61.3924976"><ele>225.00000000000003</ele><time>2026-05-04T15:01:16.037Z</time></trkpt><trkpt lat="55.161444" lon="61.3925398"><ele>225.0</ele><time>2026-05-04T15:01:18.038Z</time></trkpt><trkpt lat="55.1615092" lon="61.3925415"><ele>225.00000000000003</ele><time>2026-05-04T15:01:20.038Z</time></trkpt><trkpt lat="55.1615851" lon="61.3924921"><ele>225.00000000000003</ele><time>2026-05-04T15:01:23.038Z</time></trkpt><trkpt lat="55.1616444" lon="61.3924425"><ele>225.0</ele><time>2026-05-04T15:01:28.037Z</time></trkpt><trkpt lat="55.1617189" lon="61.3923749"><ele>225.00000000000003</ele><time>2026-05-04T15:01:33.037Z</time></trkpt><trkpt lat="55.1617882" lon="61.392291"><ele>225.00000000000003</ele><time>2026-05-04T15:01:37.038Z</time></trkpt><trkpt lat="55.1618473" lon="61.3922279"><ele>224.66666666666666</ele><time>2026-05-04T15:01:41.037Z</time></trkpt><trkpt lat="55.1619049" lon="61.3921436"><ele>224.33333333333331</ele><time>2026-05-04T15:01:45.038Z</time></trkpt><trkpt lat="55.161956" lon="61.3920174"><ele>224.0</ele><time>2026-05-04T15:01:49.037Z</time></trkpt><trkpt lat="55.1619986" lon="61.3919015"><ele>223.66666666666666</ele><time>2026-05-04T15:01:52.037Z</time></trkpt><trkpt lat="55.1620312" lon="61.3917948"><ele>223.33333333333331</ele><time>2026-05-04T15:01:55.037Z</time></trkpt><trkpt lat="55.1620571" lon="61.3916909"><ele>223.0</ele><time>2026-05-04T15:01:58.038Z</time></trkpt><trkpt lat="55.1620798" lon="61.3915553"><ele>223.0</ele><time>2026-05-04T15:02:02.038Z</time></trkpt><trkpt lat="55.1620998" lon="61.3914448"><ele>223.0</ele><time>2026-05-04T15:02:06.037Z</time></trkpt><trkpt lat="55.1621059" lon="61.3913339"><ele>223.0</ele><time>2026-05-04T15:02:09.038Z</time></trkpt><trkpt lat="55.1621098" lon="61.3912152"><ele>223.0</ele><time>2026-05-04T15:02:12.037Z</time></trkpt><trkpt lat="55.1621096" lon="61.3910806"><ele>223.0</ele><time>2026-05-04T15:02:16.038Z</time></trkpt><trkpt lat="55.1621616" lon="61.3909966"><ele>223.0</ele><time>2026-05-04T15:02:25.038Z</time></trkpt><trkpt lat="55.1622325" lon="61.3909973"><ele>223.0</ele><time>2026-05-04T15:02:29.037Z</time></trkpt><trkpt lat="55.1623001" lon="61.3909852"><ele>222.99999999999997</ele><time>2026-05-04T15:02:34.037Z</time></trkpt><trkpt lat="55.1623526" lon="61.3908785"><ele>223.0</ele><time>2026-05-04T15:02:39.037Z</time></trkpt><trkpt lat="55.1624014" lon="61.3907607"><ele>223.0</ele><time>2026-05-04T15:02:42.038Z</time></trkpt><trkpt lat="55.1624471" lon="61.3906607"><ele>223.0</ele><time>2026-05-04T15:02:45.037Z</time></trkpt><trkpt lat="55.1624996" lon="61.3905518"><ele>222.99999999999997</ele><time>2026-05-04T15:02:49.038Z</time></trkpt><trkpt lat="55.1625797" lon="61.3905559"><ele>223.0</ele><time>2026-05-04T15:02:53.037Z</time></trkpt><trkpt lat="55.1626473" lon="61.3905816"><ele>222.99999999999997</ele><time>2026-05-04T15:02:57.037Z</time></trkpt><trkpt lat="55.1627106" lon="61.3906079"><ele>223.0</ele><time>2026-05-04T15:03:01.037Z</time></trkpt><trkpt lat="55.1627798" lon="61.3906322"><ele>223.0</ele><time>2026-05-04T15:03:11.037Z</time></trkpt><trkpt lat="55.162854" lon="61.3906311"><ele>223.0</ele><time>2026-05-04T15:03:16.037Z</time></trkpt><trkpt lat="55.1629387" lon="61.3906454"><ele>222.99999999999997</ele><time>2026-05-04T15:03:21.037Z</time></trkpt><trkpt lat="55.1630234" lon="61.3906722"><ele>223.0</ele><time>2026-05-04T15:03:24.037Z</time></trkpt><trkpt lat="55.1631153" lon="61.3906832"><ele>222.99999999999997</ele><time>2026-05-04T15:03:27.038Z</time></trkpt><trkpt lat="55.1631891" lon="61.3906909"><ele>223.0</ele><time>2026-05-04T15:03:29.038Z</time></trkpt><trkpt lat="55.1632709" lon="61.390692"><ele>223.0</ele><time>2026-05-04T15:03:31.038Z</time></trkpt><trkpt lat="55.16335" lon="61.3906993"><ele>223.0</ele><time>2026-05-04T15:03:33.038Z</time></trkpt><trkpt lat="55.1634197" lon="61.3907279"><ele>222.99999999999997</ele><time>2026-05-04T15:03:35.038Z</time></trkpt><trkpt lat="55.1635003" lon="61.3908082"><ele>223.0</ele><time>2026-05-04T15:03:38.037Z</time></trkpt><trkpt lat="55.1635353" lon="61.3909115"><ele>222.57142857142856</ele><time>2026-05-04T15:03:41.037Z</time></trkpt><trkpt lat="55.1635639" lon="61.3910199"><ele>222.14285714285714</ele><time>2026-05-04T15:03:44.037Z</time></trkpt><trkpt lat="55.1635737" lon="61.3911428"><ele>221.71428571428572</ele><time>2026-05-04T15:03:47.038Z</time></trkpt><trkpt lat="55.1635738" lon="61.3912662"><ele>221.28571428571428</ele><time>2026-05-04T15:03:51.038Z</time></trkpt><trkpt lat="55.163592" lon="61.3913832"><ele>220.85714285714286</ele><time>2026-05-04T15:04:08.038Z</time></trkpt><trkpt lat="55.163653" lon="61.3914378"><ele>220.42857142857142</ele><time>2026-05-04T15:04:12.037Z</time></trkpt><trkpt lat="55.1637132" lon="61.3914777"><ele>220.0</ele><time>2026-05-04T15:04:16.038Z</time></trkpt><trkpt lat="55.1637874" lon="61.3914823"><ele>219.99999999999997</ele><time>2026-05-04T15:04:20.037Z</time></trkpt><trkpt lat="55.1638687" lon="61.3914605"><ele>220.0</ele><time>2026-05-04T15:04:23.038Z</time></trkpt><trkpt lat="55.1639429" lon="61.3914603"><ele>220.0</ele><time>2026-05-04T15:04:25.038Z</time></trkpt><trkpt lat="55.1640191" lon="61.3914827"><ele>220.0</ele><time>2026-05-04T15:04:27.037Z</time></trkpt><trkpt lat="55.1641034" lon="61.3914999"><ele>219.99999999999997</ele><time>2026-05-04T15:04:29.037Z</time></trkpt><trkpt lat="55.1641869" lon="61.3915235"><ele>220.0</ele><time>2026-05-04T15:04:31.037Z</time></trkpt><trkpt lat="55.1642627" lon="61.3915278"><ele>219.7142857142857</ele><time>2026-05-04T15:04:33.037Z</time></trkpt><trkpt lat="55.1643322" lon="61.3915297"><ele>219.42857142857142</ele><time>2026-05-04T15:04:35.038Z</time></trkpt><trkpt lat="55.1644221" lon="61.3915208"><ele>219.14285714285714</ele><time>2026-05-04T15:04:38.037Z</time></trkpt><trkpt lat="55.1645051" lon="61.3914938"><ele>218.85714285714283</ele><time>2026-05-04T15:04:41.038Z</time></trkpt><trkpt lat="55.1645681" lon="61.3914777"><ele>218.57142857142858</ele><time>2026-05-04T15:04:43.038Z</time></trkpt><trkpt lat="55.1646306" lon="61.3914636"><ele>218.28571428571428</ele><time>2026-05-04T15:04:45.038Z</time></trkpt><trkpt lat="55.1646943" lon="61.3914364"><ele>218.0</ele><time>2026-05-04T15:04:47.037Z</time></trkpt><trkpt lat="55.1647852" lon="61.3914147"><ele>218.0</ele><time>2026-05-04T15:04:50.038Z</time></trkpt><trkpt lat="55.1648509" lon="61.3914115"><ele>218.0</ele><time>2026-05-04T15:04:52.037Z</time></trkpt><trkpt lat="55.1649169" lon="61.3913851"><ele>218.0</ele><time>2026-05-04T15:04:54.037Z</time></trkpt><trkpt lat="55.1650042" lon="61.3913425"><ele>218.0</ele><time>2026-05-04T15:04:57.037Z</time></trkpt><trkpt lat="55.1650787" lon="61.3913191"><ele>218.0</ele><time>2026-05-04T15:05:00.038Z</time></trkpt><trkpt lat="55.1651463" lon="61.3913015"><ele>218.0</ele><time>2026-05-04T15:05:05.04Z</time></trkpt><trkpt lat="55.1652237" lon="61.3912741"><ele>218.0</ele><time>2026-05-04T15:05:22.058Z</time></trkpt><trkpt lat="55.1653133" lon="61.39127"><ele>218.00000000000003</ele><time>2026-05-04T15:05:25.059Z</time></trkpt><trkpt lat="55.1653907" lon="61.391234"><ele>218.0</ele><time>2026-05-04T15:05:28.058Z</time></trkpt><trkpt lat="55.1654617" lon="61.3911926"><ele>218.0</ele><time>2026-05-04T15:05:31.059Z</time></trkpt><trkpt lat="55.165537" lon="61.3912045"><ele>218.0</ele><time>2026-05-04T15:05:34.058Z</time></trkpt><trkpt lat="55.1656159" lon="61.3912526"><ele>218.00000000000003</ele><time>2026-05-04T15:05:38.059Z</time></trkpt><trkpt lat="55.1656832" lon="61.3912947"><ele>218.0</ele><time>2026-05-04T15:05:41.059Z</time></trkpt><trkpt lat="55.1657528" lon="61.3913405"><ele>217.57142857142858</ele><time>2026-05-04T15:05:45.058Z</time></trkpt><trkpt lat="55.1658079" lon="61.3914052"><ele>217.14285714285717</ele><time>2026-05-04T15:05:49.059Z</time></trkpt><trkpt lat="55.1658707" lon="61.3914538"><ele>216.71428571428572</ele><time>2026-05-04T15:05:54.058Z</time></trkpt><trkpt lat="55.1659401" lon="61.3914541"><ele>216.28571428571428</ele><time>2026-05-04T15:06:07.059Z</time></trkpt><trkpt lat="55.1660069" lon="61.3914605"><ele>215.85714285714286</ele><time>2026-05-04T15:06:18.059Z</time></trkpt><trkpt lat="55.1660754" lon="61.3914499"><ele>215.42857142857142</ele><time>2026-05-04T15:06:22.058Z</time></trkpt><trkpt lat="55.1661434" lon="61.3914453"><ele>215.0</ele><time>2026-05-04T15:06:26.059Z</time></trkpt><trkpt lat="55.1662212" lon="61.3914439"><ele>215.0</ele><time>2026-05-04T15:06:31.058Z</time></trkpt><trkpt lat="55.166295" lon="61.3914316"><ele>215.0</ele><time>2026-05-04T15:06:35.058Z</time></trkpt><trkpt lat="55.1663736" lon="61.3914299"><ele>215.0</ele><time>2026-05-04T15:06:39.058Z</time></trkpt><trkpt lat="55.1664398" lon="61.3914666"><ele>215.0</ele><time>2026-05-04T15:06:56.058Z</time></trkpt><trkpt lat="55.16649" lon="61.3915524"><ele>215.0</ele><time>2026-05-04T15:07:01.059Z</time></trkpt><trkpt lat="55.1665646" lon="61.3915824"><ele>215.0</ele><time>2026-05-04T15:07:05.059Z</time></trkpt><trkpt lat="55.1666297" lon="61.3915827"><ele>215.0</ele><time>2026-05-04T15:07:08.059Z</time></trkpt><trkpt lat="55.1666982" lon="61.3915976"><ele>215.00000000000003</ele><time>2026-05-04T15:07:11.059Z</time></trkpt><trkpt lat="55.1667766" lon="61.3916144"><ele>215.0</ele><time>2026-05-04T15:07:15.059Z</time></trkpt><trkpt lat="55.1668492" lon="61.3915765"><ele>215.0</ele><time>2026-05-04T15:07:18.059Z</time></trkpt><trkpt lat="55.166903" lon="61.3915092"><ele>215.0</ele><time>2026-05-04T15:07:21.058Z</time></trkpt><trkpt lat="55.1669775" lon="61.3915099"><ele>215.00000000000003</ele><time>2026-05-04T15:07:24.058Z</time></trkpt><trkpt lat="55.16707" lon="61.3914803"><ele>215.0</ele><time>2026-05-04T15:07:27.058Z</time></trkpt><trkpt lat="55.1671593" lon="61.3914513"><ele>215.0</ele><time>2026-05-04T15:07:30.059Z</time></trkpt><trkpt lat="55.1672242" lon="61.3914103"><ele>215.0</ele><time>2026-05-04T15:07:33.058Z</time></trkpt><trkpt lat="55.1673032" lon="61.3913891"><ele>215.0</ele><time>2026-05-04T15:07:36.059Z</time></trkpt><trkpt lat="55.1673718" lon="61.3914009"><ele>215.0</ele><time>2026-05-04T15:07:39.059Z</time></trkpt><trkpt lat="55.1674016" lon="61.3915057"><ele>215.0</ele><time>2026-05-04T15:07:45.058Z</time></trkpt><trkpt lat="55.1673695" lon="61.3916468"><ele>215.0</ele><time>2026-05-04T15:07:48.059Z</time></trkpt><trkpt lat="55.1673596" lon="61.3917706"><ele>215.0</ele><time>2026-05-04T15:07:50.058Z</time></trkpt><trkpt lat="55.167351" lon="61.391921"><ele>215.0</ele><time>2026-05-04T15:07:52.059Z</time></trkpt><trkpt lat="55.1673505" lon="61.392053"><ele>215.0</ele><time>2026-05-04T15:07:54.058Z</time></trkpt><trkpt lat="55.1673432" lon="61.392176"><ele>215.0</ele><time>2026-05-04T15:07:56.059Z</time></trkpt><trkpt lat="55.1673425" lon="61.3922975"><ele>215.0</ele><time>2026-05-04T15:07:58.058Z</time></trkpt><trkpt lat="55.1673358" lon="61.3924369"><ele>215.0</ele><time>2026-05-04T15:08:01.059Z</time></trkpt><trkpt lat="55.1673305" lon="61.3925484"><ele>215.0</ele><time>2026-05-04T15:08:08.059Z</time></trkpt><trkpt lat="55.1673483" lon="61.3926732"><ele>215.0</ele><time>2026-05-04T15:08:15.059Z</time></trkpt><trkpt lat="55.1673474" lon="61.3927915"><ele>214.7142857142857</ele><time>2026-05-04T15:08:41.059Z</time></trkpt><trkpt lat="55.1673571" lon="61.3929184"><ele>214.42857142857144</ele><time>2026-05-04T15:08:48.058Z</time></trkpt><trkpt lat="55.167373" lon="61.3930266"><ele>214.14285714285714</ele><time>2026-05-04T15:08:53.021Z</time></trkpt><trkpt lat="55.1673894" lon="61.3931406"><ele>213.85714285714283</ele><time>2026-05-04T15:08:57.994Z</time></trkpt><trkpt lat="55.167403" lon="61.3932644"><ele>213.57142857142856</ele><time>2026-05-04T15:09:03.058Z</time></trkpt><trkpt lat="55.1674396" lon="61.3933676"><ele>213.28571428571428</ele><time>2026-05-04T15:09:09.059Z</time></trkpt><trkpt lat="55.1675111" lon="61.3933839"><ele>213.0</ele><time>2026-05-04T15:09:15.058Z</time></trkpt><trkpt lat="55.167578" lon="61.3934458"><ele>212.7142857142857</ele><time>2026-05-04T15:09:57.059Z</time></trkpt><trkpt lat="55.1676461" lon="61.3934641"><ele>212.42857142857142</ele><time>2026-05-04T15:10:02.058Z</time></trkpt><trkpt lat="55.1677179" lon="61.3934466"><ele>212.14285714285714</ele><time>2026-05-04T15:10:07.008Z</time></trkpt><trkpt lat="55.1677917" lon="61.3934236"><ele>211.85714285714283</ele><time>2026-05-04T15:10:12.005Z</time></trkpt><trkpt lat="55.1678598" lon="61.393411"><ele>211.57142857142858</ele><time>2026-05-04T15:10:18.059Z</time></trkpt><trkpt lat="55.1679296" lon="61.3933861"><ele>211.28571428571428</ele><time>2026-05-04T15:10:23.059Z</time></trkpt><trkpt lat="55.1679777" lon="61.3933115"><ele>211.0</ele><time>2026-05-04T15:10:28.088Z</time></trkpt><trkpt lat="55.1680451" lon="61.3932551"><ele>211.0</ele><time>2026-05-04T15:10:34.058Z</time></trkpt><trkpt lat="55.1681171" lon="61.3932776"><ele>211.0</ele><time>2026-05-04T15:10:39.971Z</time></trkpt><trkpt lat="55.1681119" lon="61.3933963"><ele>211.0</ele><time>2026-05-04T15:10:46.058Z</time></trkpt><trkpt lat="55.1680989" lon="61.3935095"><ele>211.0</ele><time>2026-05-04T15:14:27.059Z</time></trkpt><trkpt lat="55.1680613" lon="61.3936201"><ele>211.0</ele><time>2026-05-04T15:14:32.059Z</time></trkpt><trkpt lat="55.1680483" lon="61.3937559"><ele>211.0</ele><time>2026-05-04T15:14:40.058Z</time></trkpt><trkpt lat="55.1680676" lon="61.3938704"><ele>211.0</ele><time>2026-05-04T15:14:44.085Z</time></trkpt><trkpt lat="55.1681054" lon="61.3941569"><ele>210.99999999999997</ele><time>2026-05-04T15:14:45.059Z</time></trkpt><trkpt lat="55.1681187" lon="61.3942817"><ele>211.0</ele><time>2026-05-04T15:14:47.011Z</time></trkpt><trkpt lat="55.1681266" lon="61.3945252"><ele>211.0</ele><time>2026-05-04T15:14:50.058Z</time></trkpt><trkpt lat="55.1681286" lon="61.3946538"><ele>211.0</ele><time>2026-05-04T15:14:53.059Z</time></trkpt><trkpt lat="55.1681259" lon="61.3947679"><ele>210.99999999999997</ele><time>2026-05-04T15:14:56.059Z</time></trkpt><trkpt lat="55.1681349" lon="61.3948807"><ele>211.0</ele><time>2026-05-04T15:14:59.059Z</time></trkpt><trkpt lat="55.1681374" lon="61.3950073"><ele>211.0</ele><time>2026-05-04T15:15:02.059Z</time></trkpt><trkpt lat="55.1681385" lon="61.3951272"><ele>211.0</ele><time>2026-05-04T15:15:05.058Z</time></trkpt><trkpt lat="55.1681387" lon="61.3952718"><ele>211.0</ele><time>2026-05-04T15:15:09.058Z</time></trkpt><trkpt lat="55.1681371" lon="61.3953987"><ele>211.0</ele><time>2026-05-04T15:15:13.059Z</time></trkpt><trkpt lat="55.1680958" lon="61.3954852"><ele>211.0</ele><time>2026-05-04T15:15:18.059Z</time></trkpt><trkpt lat="55.1680326" lon="61.3955362"><ele>211.0</ele><time>2026-05-04T15:15:24.058Z</time></trkpt><trkpt lat="55.1679717" lon="61.395579"><ele>211.0</ele><time>2026-05-04T15:15:28.059Z</time></trkpt><trkpt lat="55.1679098" lon="61.3956089"><ele>211.14285714285714</ele><time>2026-05-04T15:15:34.058Z</time></trkpt><trkpt lat="55.1678503" lon="61.3956699"><ele>211.28571428571428</ele><time>2026-05-04T15:16:18.058Z</time></trkpt><trkpt lat="55.1678609" lon="61.3957897"><ele>211.42857142857144</ele><time>2026-05-04T15:16:23.059Z</time></trkpt><trkpt lat="55.1678623" lon="61.3959263"><ele>211.57142857142856</ele><time>2026-05-04T15:16:28.058Z</time></trkpt><trkpt lat="55.1678669" lon="61.3960403"><ele>211.7142857142857</ele><time>2026-05-04T15:16:34.059Z</time></trkpt><trkpt lat="55.1678732" lon="61.3961623"><ele>211.85714285714286</ele><time>2026-05-04T15:16:44.059Z</time></trkpt><trkpt lat="55.1678712" lon="61.396275"><ele>212.0</ele><time>2026-05-04T15:19:28.058Z</time></trkpt><trkpt lat="55.1678884" lon="61.3964007"><ele>212.0</ele><time>2026-05-04T15:19:33.059Z</time></trkpt><trkpt lat="55.1678989" lon="61.3965207"><ele>212.0</ele><time>2026-05-04T15:19:38.058Z</time></trkpt><trkpt lat="55.1679697" lon="61.3965251"><ele>212.0</ele><time>2026-05-04T15:19:48.059Z</time></trkpt><trkpt lat="55.1680239" lon="61.3964668"><ele>212.0</ele><time>2026-05-04T15:19:52.059Z</time></trkpt><trkpt lat="55.1680741" lon="61.3963806"><ele>212.0</ele><time>2026-05-04T15:19:59.058Z</time></trkpt><trkpt lat="55.1681269" lon="61.3963127"><ele>212.0</ele><time>2026-05-04T15:20:05.059Z</time></trkpt><trkpt lat="55.1681957" lon="61.3962962"><ele>212.0</ele><time>2026-05-04T15:20:08.059Z</time></trkpt><trkpt lat="55.1682586" lon="61.3962888"><ele>211.71428571428572</ele><time>2026-05-04T15:20:11.059Z</time></trkpt><trkpt lat="55.1683235" lon="61.3963039"><ele>211.42857142857142</ele><time>2026-05-04T15:20:14.059Z</time></trkpt><trkpt lat="55.1684111" lon="61.3962993"><ele>211.14285714285714</ele><time>2026-05-04T15:20:17.059Z</time></trkpt><trkpt lat="55.1684844" lon="61.3962899"><ele>210.85714285714286</ele><time>2026-05-04T15:20:19.059Z</time></trkpt><trkpt lat="55.168561" lon="61.3962817"><ele>210.57142857142856</ele><time>2026-05-04T15:20:22.058Z</time></trkpt><trkpt lat="55.1686284" lon="61.396271"><ele>210.28571428571428</ele><time>2026-05-04T15:20:26.059Z</time></trkpt><trkpt lat="55.1686554" lon="61.3963872"><ele>210.0</ele><time>2026-05-04T15:20:36.058Z</time></trkpt><trkpt lat="55.1686671" lon="61.3965026"><ele>210.0</ele><time>2026-05-04T15:20:42.058Z</time></trkpt><trkpt lat="55.1686849" lon="61.3966108"><ele>210.0</ele><time>2026-05-04T15:23:46.059Z</time></trkpt><trkpt lat="55.1687267" lon="61.3967107"><ele>210.0</ele><time>2026-05-04T15:23:50.058Z</time></trkpt><trkpt lat="55.1688029" lon="61.3967465"><ele>210.0</ele><time>2026-05-04T15:23:54.059Z</time></trkpt><trkpt lat="55.1688747" lon="61.396743"><ele>210.0</ele><time>2026-05-04T15:23:59.059Z</time></trkpt><trkpt lat="55.1689422" lon="61.3967663"><ele>210.0</ele><time>2026-05-04T15:24:05.059Z</time></trkpt><trkpt lat="55.1690045" lon="61.3968116"><ele>210.0</ele><time>2026-05-04T15:24:13.059Z</time></trkpt><trkpt lat="55.1689635" lon="61.3969211"><ele>210.0</ele><time>2026-05-04T15:26:37.058Z</time></trkpt><trkpt lat="55.1689187" lon="61.3970089"><ele>210.0</ele><time>2026-05-04T15:26:41.059Z</time></trkpt><trkpt lat="55.1688878" lon="61.397112"><ele>210.0</ele><time>2026-05-04T15:26:45.058Z</time></trkpt><trkpt lat="55.1688578" lon="61.3972301"><ele>210.0</ele><time>2026-05-04T15:26:49.059Z</time></trkpt><trkpt lat="55.1688271" lon="61.397327"><ele>210.0</ele><time>2026-05-04T15:26:52.059Z</time></trkpt><trkpt lat="55.1687937" lon="61.3974383"><ele>210.0</ele><time>2026-05-04T15:26:56.058Z</time></trkpt><trkpt lat="55.1687586" lon="61.397556"><ele>210.0</ele><time>2026-05-04T15:27:01.059Z</time></trkpt><trkpt lat="55.1687153" lon="61.3976614"><ele>209.71428571428572</ele><time>2026-05-04T15:27:06.059Z</time></trkpt><trkpt lat="55.1686711" lon="61.3977609"><ele>209.42857142857144</ele><time>2026-05-04T15:27:11.058Z</time></trkpt><trkpt lat="55.1686435" lon="61.397875"><ele>209.14285714285714</ele><time>2026-05-04T15:27:15.059Z</time></trkpt><trkpt lat="55.1686162" lon="61.3979745"><ele>208.85714285714286</ele><time>2026-05-04T15:27:19.058Z</time></trkpt><trkpt lat="55.1685814" lon="61.3980893"><ele>208.57142857142858</ele><time>2026-05-04T15:27:24.058Z</time></trkpt><trkpt lat="55.1685689" lon="61.3982006"><ele>208.28571428571428</ele><time>2026-05-04T15:27:27.058Z</time></trkpt><trkpt lat="55.1685298" lon="61.3983274"><ele>208.0</ele><time>2026-05-04T15:27:32.059Z</time></trkpt><trkpt lat="55.1684862" lon="61.3984291"><ele>207.85714285714286</ele><time>2026-05-04T15:27:35.058Z</time></trkpt><trkpt lat="55.1684448" lon="61.3985535"><ele>207.71428571428572</ele><time>2026-05-04T15:27:38.058Z</time></trkpt><trkpt lat="55.1684081" lon="61.3986451"><ele>207.57142857142858</ele><time>2026-05-04T15:27:43.058Z</time></trkpt><trkpt lat="55.1683875" lon="61.3987513"><ele>207.42857142857144</ele><time>2026-05-04T15:27:47.058Z</time></trkpt><trkpt lat="55.168363" lon="61.3989002"><ele>207.28571428571428</ele><time>2026-05-04T15:27:51.058Z</time></trkpt><trkpt lat="55.1683224" lon="61.398998"><ele>207.14285714285717</ele><time>2026-05-04T15:27:54.058Z</time></trkpt><trkpt lat="55.168289" lon="61.3991113"><ele>207.0</ele><time>2026-05-04T15:27:58.059Z</time></trkpt><trkpt lat="55.1682529" lon="61.3992046"><ele>206.85714285714286</ele><time>2026-05-04T15:28:02.059Z</time></trkpt><trkpt lat="55.1682101" lon="61.3993127"><ele>206.71428571428572</ele><time>2026-05-04T15:28:05.059Z</time></trkpt><trkpt lat="55.1681859" lon="61.3994152"><ele>206.57142857142856</ele><time>2026-05-04T15:28:08.058Z</time></trkpt><trkpt lat="55.1681419" lon="61.399533"><ele>206.42857142857144</ele><time>2026-05-04T15:28:12.058Z</time></trkpt><trkpt lat="55.168097" lon="61.3996172"><ele>206.28571428571428</ele><time>2026-05-04T15:28:15.058Z</time></trkpt><trkpt lat="55.1680735" lon="61.3997346"><ele>206.14285714285714</ele><time>2026-05-04T15:28:19.059Z</time></trkpt><trkpt lat="55.1680314" lon="61.3998347"><ele>206.0</ele><time>2026-05-04T15:28:24.058Z</time></trkpt><trkpt lat="55.1679896" lon="61.3999443"><ele>206.85714285714283</ele><time>2026-05-04T15:29:46.059Z</time></trkpt><trkpt lat="55.1679319" lon="61.3999894"><ele>207.71428571428572</ele><time>2026-05-04T15:29:51.059Z</time></trkpt><trkpt lat="55.1678674" lon="61.4000408"><ele>208.57142857142856</ele><time>2026-05-04T15:29:56.059Z</time></trkpt><trkpt lat="55.1678036" lon="61.4001031"><ele>209.42857142857142</ele><time>2026-05-04T15:29:59.965Z</time></trkpt><trkpt lat="55.1677517" lon="61.4001804"><ele>210.28571428571428</ele><time>2026-05-04T15:30:06.059Z</time></trkpt><trkpt lat="55.1676878" lon="61.400184"><ele>211.14285714285714</ele><time>2026-05-04T15:30:11.059Z</time></trkpt><trkpt lat="55.1676149" lon="61.400203"><ele>212.0</ele><time>2026-05-04T15:30:17.058Z</time></trkpt><trkpt lat="55.1675492" lon="61.4001781"><ele>212.0</ele><time>2026-05-04T15:30:22.067Z</time></trkpt><trkpt lat="55.1674778" lon="61.4001668"><ele>212.0</ele><time>2026-05-04T15:30:28.058Z</time></trkpt><trkpt lat="55.1674064" lon="61.4001608"><ele>212.0</ele><time>2026-05-04T15:30:35.059Z</time></trkpt><trkpt lat="55.1673322" lon="61.4001785"><ele>212.0</ele><time>2026-05-04T15:30:42.058Z</time></trkpt><trkpt lat="55.1672613" lon="61.4001913"><ele>212.0</ele><time>2026-05-04T15:30:48.059Z</time></trkpt><trkpt lat="55.167193" lon="61.4002052"><ele>212.0</ele><time>2026-05-04T15:30:53.059Z</time></trkpt><trkpt lat="55.1671278" lon="61.4001848"><ele>212.0</ele><time>2026-05-04T15:30:59.988Z</time></trkpt><trkpt lat="55.1670616" lon="61.400199"><ele>212.71428571428572</ele><time>2026-05-04T15:31:06.059Z</time></trkpt><trkpt lat="55.166993" lon="61.4002077"><ele>213.42857142857142</ele><time>2026-05-04T15:31:12.059Z</time></trkpt><trkpt lat="55.1669276" lon="61.400236"><ele>214.14285714285714</ele><time>2026-05-04T15:31:18.085Z</time></trkpt><trkpt lat="55.1668619" lon="61.4002409"><ele>214.85714285714286</ele><time>2026-05-04T15:31:26.059Z</time></trkpt><trkpt lat="55.1667982" lon="61.4002177"><ele>215.57142857142856</ele><time>2026-05-04T15:31:32.021Z</time></trkpt><trkpt lat="55.1667333" lon="61.4002116"><ele>216.28571428571428</ele><time>2026-05-04T15:31:38.058Z</time></trkpt><trkpt lat="55.1666655" lon="61.4002102"><ele>217.0</ele><time>2026-05-04T15:31:43.059Z</time></trkpt><trkpt lat="55.1666036" lon="61.4001838"><ele>217.0</ele><time>2026-05-04T15:31:49.058Z</time></trkpt><trkpt lat="55.1665379" lon="61.4001624"><ele>217.0</ele><time>2026-05-04T15:31:56.058Z</time></trkpt><trkpt lat="55.1664651" lon="61.400181"><ele>217.0</ele><time>2026-05-04T15:32:05.058Z</time></trkpt><trkpt lat="55.1664004" lon="61.4002024"><ele>217.0</ele><time>2026-05-04T15:32:11.059Z</time></trkpt><trkpt lat="55.1663292" lon="61.4002136"><ele>217.0</ele><time>2026-05-04T15:32:18.059Z</time></trkpt><trkpt lat="55.1662632" lon="61.4002462"><ele>217.0</ele><time>2026-05-04T15:32:24.966Z</time></trkpt><trkpt lat="55.166191" lon="61.4002837"><ele>217.0</ele><time>2026-05-04T15:32:32.026Z</time></trkpt><trkpt lat="55.1661195" lon="61.4002767"><ele>217.14285714285714</ele><time>2026-05-04T15:32:37.964Z</time></trkpt><trkpt lat="55.1660494" lon="61.4002705"><ele>217.28571428571428</ele><time>2026-05-04T15:32:45.059Z</time></trkpt><trkpt lat="55.1659862" lon="61.4002702"><ele>217.42857142857144</ele><time>2026-05-04T15:32:51.059Z</time></trkpt><trkpt lat="55.1659179" lon="61.4002357"><ele>217.57142857142856</ele><time>2026-05-04T15:32:58.059Z</time></trkpt><trkpt lat="55.1658497" lon="61.4002683"><ele>217.71428571428572</ele><time>2026-05-04T15:33:04.058Z</time></trkpt><trkpt lat="55.1657804" lon="61.4002825"><ele>217.85714285714286</ele><time>2026-05-04T15:33:10.059Z</time></trkpt><trkpt lat="55.1657193" lon="61.400317"><ele>218.0</ele><time>2026-05-04T15:33:17.058Z</time></trkpt><trkpt lat="55.165654" lon="61.4003136"><ele>217.57142857142858</ele><time>2026-05-04T15:33:28.97Z</time></trkpt><trkpt lat="55.1655848" lon="61.4002998"><ele>217.14285714285717</ele><time>2026-05-04T15:33:34.042Z</time></trkpt><trkpt lat="55.1655338" lon="61.4003708"><ele>216.71428571428572</ele><time>2026-05-04T15:33:38.058Z</time></trkpt><trkpt lat="55.1654704" lon="61.4003481"><ele>216.28571428571428</ele><time>2026-05-04T15:33:43.058Z</time></trkpt><trkpt lat="55.1654087" lon="61.4003716"><ele>215.85714285714286</ele><time>2026-05-04T15:33:49.089Z</time></trkpt><trkpt lat="55.1653454" lon="61.4003622"><ele>215.42857142857142</ele><time>2026-05-04T15:33:56.043Z</time></trkpt><trkpt lat="55.1652794" lon="61.4003836"><ele>215.0</ele><time>2026-05-04T15:34:04.059Z</time></trkpt><trkpt lat="55.16521" lon="61.4004032"><ele>215.0</ele><time>2026-05-04T15:34:11.09Z</time></trkpt><trkpt lat="55.1651421" lon="61.4004221"><ele>215.0</ele><time>2026-05-04T15:34:17.025Z</time></trkpt><trkpt lat="55.1650777" lon="61.4004023"><ele>215.0</ele><time>2026-05-04T15:34:23.058Z</time></trkpt><trkpt lat="55.1650136" lon="61.4004087"><ele>215.0</ele><time>2026-05-04T15:34:30.059Z</time></trkpt><trkpt lat="55.1649489" lon="61.4004579"><ele>215.0</ele><time>2026-05-04T15:34:38.058Z</time></trkpt><trkpt lat="55.1648788" lon="61.4004728"><ele>215.0</ele><time>2026-05-04T15:34:45.059Z</time></trkpt><trkpt lat="55.164814" lon="61.4004583"><ele>215.0</ele><time>2026-05-04T15:34:51.007Z</time></trkpt><trkpt lat="55.1647393" lon="61.4004348"><ele>215.14285714285714</ele><time>2026-05-04T15:34:57.058Z</time></trkpt><trkpt lat="55.1646696" lon="61.4004257"><ele>215.2857142857143</ele><time>2026-05-04T15:35:03.058Z</time></trkpt><trkpt lat="55.164601" lon="61.40044"><ele>215.42857142857144</ele><time>2026-05-04T15:35:10.059Z</time></trkpt><trkpt lat="55.1645346" lon="61.400496"><ele>215.57142857142856</ele><time>2026-05-04T15:35:16.059Z</time></trkpt><trkpt lat="55.1644729" lon="61.4005221"><ele>215.71428571428572</ele><time>2026-05-04T15:35:21.058Z</time></trkpt><trkpt lat="55.1644029" lon="61.4005448"><ele>215.85714285714286</ele><time>2026-05-04T15:35:28.058Z</time></trkpt><trkpt lat="55.1643373" lon="61.4005531"><ele>216.0</ele><time>2026-05-04T15:35:39.042Z</time></trkpt><trkpt lat="55.164271" lon="61.4005675"><ele>216.14285714285714</ele><time>2026-05-04T15:35:46.087Z</time></trkpt><trkpt lat="55.1642065" lon="61.4006017"><ele>216.28571428571428</ele><time>2026-05-04T15:35:54.088Z</time></trkpt><trkpt lat="55.1641361" lon="61.4005985"><ele>216.42857142857144</ele><time>2026-05-04T15:36:07.09Z</time></trkpt><trkpt lat="55.1640675" lon="61.400613"><ele>216.57142857142856</ele><time>2026-05-04T15:36:16.085Z</time></trkpt><trkpt lat="55.164006" lon="61.400644"><ele>216.71428571428572</ele><time>2026-05-04T15:36:21.082Z</time></trkpt><trkpt lat="55.1639358" lon="61.4006474"><ele>216.85714285714286</ele><time>2026-05-04T15:36:29.083Z</time></trkpt><trkpt lat="55.1638693" lon="61.4006664"><ele>217.0</ele><time>2026-05-04T15:36:38.019Z</time></trkpt><trkpt lat="55.1638155" lon="61.4007246"><ele>217.42857142857142</ele><time>2026-05-04T15:36:44.09Z</time></trkpt><trkpt lat="55.1637506" lon="61.4007417"><ele>217.85714285714286</ele><time>2026-05-04T15:36:51.005Z</time></trkpt><trkpt lat="55.1636782" lon="61.4007261"><ele>218.28571428571428</ele><time>2026-05-04T15:36:58.078Z</time></trkpt><trkpt lat="55.1636129" lon="61.4007482"><ele>218.71428571428572</ele><time>2026-05-04T15:37:04.054Z</time></trkpt><trkpt lat="55.1635472" lon="61.4007617"><ele>219.14285714285714</ele><time>2026-05-04T15:37:10.085Z</time></trkpt><trkpt lat="55.1634842" lon="61.4007555"><ele>219.57142857142856</ele><time>2026-05-04T15:37:16.077Z</time></trkpt><trkpt lat="55.1634209" lon="61.4007476"><ele>220.0</ele><time>2026-05-04T15:37:22.077Z</time></trkpt><trkpt lat="55.163368" lon="61.4006864"><ele>219.99999999999997</ele><time>2026-05-04T15:37:28.095Z</time></trkpt><trkpt lat="55.163298" lon="61.400687"><ele>220.0</ele><time>2026-05-04T15:37:36.074Z</time></trkpt><trkpt lat="55.163229" lon="61.4007173"><ele>220.0</ele><time>2026-05-04T15:37:42.093Z</time></trkpt><trkpt lat="55.1632111" lon="61.4005986"><ele>220.0</ele><time>2026-05-04T15:38:50.095Z</time></trkpt><trkpt lat="55.1631429" lon="61.4005694"><ele>220.0</ele><time>2026-05-04T15:38:56.044Z</time></trkpt><trkpt lat="55.1630783" lon="61.4005292"><ele>219.99999999999997</ele><time>2026-05-04T15:39:03.021Z</time></trkpt><trkpt lat="55.16314" lon="61.4004811"><ele>220.0</ele><time>2026-05-04T15:39:22.999Z</time></trkpt><trkpt lat="55.1631122" lon="61.4003821"><ele>220.0</ele><time>2026-05-04T15:40:00.091Z</time></trkpt><trkpt lat="55.1631011" lon="61.4004949"><ele>220.0</ele><time>2026-05-04T15:41:07.002Z</time></trkpt><trkpt lat="55.1631529" lon="61.4005802"><ele>220.0</ele><time>2026-05-04T15:41:11.093Z</time></trkpt><trkpt lat="55.1632279" lon="61.4005809"><ele>220.0</ele><time>2026-05-04T15:41:15.093Z</time></trkpt><trkpt lat="55.1632438" lon="61.4006913"><ele>220.0</ele><time>2026-05-04T15:49:23.082Z</time></trkpt><trkpt lat="55.1631787" lon="61.4010147"><ele>220.4</ele><time>2026-05-04T15:51:50.098Z</time></trkpt><trkpt lat="55.1631306" lon="61.4011408"><ele>220.8</ele><time>2026-05-04T15:51:52.085Z</time></trkpt><trkpt lat="55.1631541" lon="61.4012853"><ele>221.2</ele><time>2026-05-04T15:51:55.089Z</time></trkpt><trkpt lat="55.163221" lon="61.401372"><ele>221.6</ele><time>2026-05-04T15:51:58.09Z</time></trkpt><trkpt lat="55.1633008" lon="61.4014067"><ele>222.0</ele><time>2026-05-04T15:52:01.092Z</time></trkpt><trkpt lat="55.1634929" lon="61.4014354"><ele>222.0</ele><time>2026-05-04T15:52:09.083Z</time></trkpt><trkpt lat="55.1635351" lon="61.4015511"><ele>222.0</ele><time>2026-05-04T15:52:11.089Z</time></trkpt><trkpt lat="55.1635582" lon="61.4016606"><ele>222.0</ele><time>2026-05-04T15:52:13.098Z</time></trkpt><trkpt lat="55.163568" lon="61.4018019"><ele>222.0</ele><time>2026-05-04T15:52:16.087Z</time></trkpt><trkpt lat="55.1635706" lon="61.4019166"><ele>222.0</ele><time>2026-05-04T15:52:18.087Z</time></trkpt><trkpt lat="55.1635739" lon="61.4020285"><ele>222.0</ele><time>2026-05-04T15:52:20.094Z</time></trkpt><trkpt lat="55.163578" lon="61.4021465"><ele>222.0</ele><time>2026-05-04T15:52:22.087Z</time></trkpt><trkpt lat="55.1635799" lon="61.4022995"><ele>221.83333333333334</ele><time>2026-05-04T15:52:25.098Z</time></trkpt><trkpt lat="55.1635942" lon="61.4024579"><ele>221.66666666666669</ele><time>2026-05-04T15:52:28.086Z</time></trkpt><trkpt lat="55.1636428" lon="61.4025863"><ele>221.5</ele><time>2026-05-04T15:52:31.094Z</time></trkpt><trkpt lat="55.1636793" lon="61.4027287"><ele>221.33333333333334</ele><time>2026-05-04T15:52:34.08Z</time></trkpt><trkpt lat="55.1636678" lon="61.4028423"><ele>221.16666666666669</ele><time>2026-05-04T15:52:36.095Z</time></trkpt><trkpt lat="55.1636331" lon="61.4029507"><ele>221.0</ele><time>2026-05-04T15:52:41.097Z</time></trkpt><trkpt lat="55.1636456" lon="61.4030897"><ele>221.00000000000003</ele><time>2026-05-04T15:52:44.098Z</time></trkpt><trkpt lat="55.1636582" lon="61.4032527"><ele>221.0</ele><time>2026-05-04T15:52:49.087Z</time></trkpt><trkpt lat="55.1636531" lon="61.4033938"><ele>221.0</ele><time>2026-05-04T15:52:51.086Z</time></trkpt><trkpt lat="55.1636541" lon="61.4035309"><ele>221.0</ele><time>2026-05-04T15:52:54.089Z</time></trkpt><trkpt lat="55.1636903" lon="61.4036411"><ele>221.00000000000003</ele><time>2026-05-04T15:52:57.079Z</time></trkpt><trkpt lat="55.1637532" lon="61.4037052"><ele>221.0</ele><time>2026-05-04T15:52:59.087Z</time></trkpt><trkpt lat="55.163837" lon="61.4037029"><ele>221.0</ele><time>2026-05-04T15:53:01.089Z</time></trkpt><trkpt lat="55.1639079" lon="61.4036628"><ele>221.00000000000003</ele><time>2026-05-04T15:53:03.081Z</time></trkpt><trkpt lat="55.1639685" lon="61.4036315"><ele>221.00000000000003</ele><time>2026-05-04T15:53:05.094Z</time></trkpt><trkpt lat="55.1640328" lon="61.4036413"><ele>221.0</ele><time>2026-05-04T15:53:07.094Z</time></trkpt><trkpt lat="55.1642627" lon="61.4036519"><ele>221.0</ele><time>2026-05-04T15:53:16.087Z</time></trkpt><trkpt lat="55.1643323" lon="61.4036188"><ele>220.83333333333334</ele><time>2026-05-04T15:53:18.083Z</time></trkpt><trkpt lat="55.1644376" lon="61.4035886"><ele>220.66666666666669</ele><time>2026-05-04T15:53:22.09Z</time></trkpt><trkpt lat="55.1645138" lon="61.4035833"><ele>220.5</ele><time>2026-05-04T15:53:24.084Z</time></trkpt><trkpt lat="55.1646153" lon="61.4035858"><ele>220.33333333333331</ele><time>2026-05-04T15:53:27.089Z</time></trkpt><trkpt lat="55.1646876" lon="61.4035889"><ele>220.16666666666666</ele><time>2026-05-04T15:53:29.083Z</time></trkpt><trkpt lat="55.1647488" lon="61.403621"><ele>220.0</ele><time>2026-05-04T15:53:31.087Z</time></trkpt><trkpt lat="55.1648097" lon="61.4036666"><ele>219.57142857142856</ele><time>2026-05-04T15:53:33.088Z</time></trkpt><trkpt lat="55.1648802" lon="61.4036878"><ele>219.14285714285714</ele><time>2026-05-04T15:53:35.076Z</time></trkpt><trkpt lat="55.1649479" lon="61.4036966"><ele>218.71428571428572</ele><time>2026-05-04T15:53:37.086Z</time></trkpt><trkpt lat="55.1650176" lon="61.403675"><ele>218.28571428571428</ele><time>2026-05-04T15:53:39.091Z</time></trkpt><trkpt lat="55.1650833" lon="61.4036071"><ele>217.85714285714286</ele><time>2026-05-04T15:53:43.083Z</time></trkpt><trkpt lat="55.1651542" lon="61.403586"><ele>217.42857142857142</ele><time>2026-05-04T15:53:46.094Z</time></trkpt><trkpt lat="55.1652244" lon="61.4035708"><ele>217.0</ele><time>2026-05-04T15:53:49.092Z</time></trkpt><trkpt lat="55.1652867" lon="61.4035128"><ele>217.0</ele><time>2026-05-04T15:53:55.088Z</time></trkpt><trkpt lat="55.1653579" lon="61.4035026"><ele>217.0</ele><time>2026-05-04T15:54:32.088Z</time></trkpt><trkpt lat="55.1654233" lon="61.4035174"><ele>217.0</ele><time>2026-05-04T15:54:36.083Z</time></trkpt><trkpt lat="55.1654819" lon="61.403561"><ele>217.0</ele><time>2026-05-04T15:54:49.083Z</time></trkpt><trkpt lat="55.1655533" lon="61.4035486"><ele>217.0</ele><time>2026-05-04T15:55:05.097Z</time></trkpt><trkpt lat="55.1656223" lon="61.4035378"><ele>217.0</ele><time>2026-05-04T15:55:10.09Z</time></trkpt><trkpt lat="55.1656887" lon="61.4035703"><ele>217.0</ele><time>2026-05-04T15:55:13.097Z</time></trkpt><trkpt lat="55.1658604" lon="61.4035708"><ele>216.66666666666666</ele><time>2026-05-04T15:55:26.098Z</time></trkpt><trkpt lat="55.1659252" lon="61.4035479"><ele>216.33333333333331</ele><time>2026-05-04T15:55:29.097Z</time></trkpt><trkpt lat="55.1660072" lon="61.4035489"><ele>216.0</ele><time>2026-05-04T15:55:32.093Z</time></trkpt><trkpt lat="55.1660749" lon="61.4035557"><ele>215.66666666666669</ele><time>2026-05-04T15:55:35.089Z</time></trkpt><trkpt lat="55.1661711" lon="61.4035398"><ele>215.33333333333334</ele><time>2026-05-04T15:55:38.089Z</time></trkpt><trkpt lat="55.1662587" lon="61.4035487"><ele>215.0</ele><time>2026-05-04T15:55:40.079Z</time></trkpt><trkpt lat="55.1663243" lon="61.4035526"><ele>215.0</ele><time>2026-05-04T15:55:42.092Z</time></trkpt><trkpt lat="55.1664124" lon="61.4035319"><ele>215.0</ele><time>2026-05-04T15:55:45.09Z</time></trkpt><trkpt lat="55.1664772" lon="61.4035155"><ele>215.0</ele><time>2026-05-04T15:55:47.087Z</time></trkpt><trkpt lat="55.166544" lon="61.4034805"><ele>215.0</ele><time>2026-05-04T15:55:49.097Z</time></trkpt><trkpt lat="55.1666162" lon="61.4034543"><ele>215.0</ele><time>2026-05-04T15:55:51.086Z</time></trkpt><trkpt lat="55.1666914" lon="61.4034389"><ele>215.0</ele><time>2026-05-04T15:55:53.092Z</time></trkpt><trkpt lat="55.1667636" lon="61.4034293"><ele>215.0</ele><time>2026-05-04T15:55:55.086Z</time></trkpt><trkpt lat="55.1668364" lon="61.4034202"><ele>215.14285714285714</ele><time>2026-05-04T15:55:57.078Z</time></trkpt><trkpt lat="55.1669001" lon="61.4034108"><ele>215.2857142857143</ele><time>2026-05-04T15:56:00.088Z</time></trkpt><trkpt lat="55.1669691" lon="61.4033988"><ele>215.42857142857144</ele><time>2026-05-04T15:56:08.089Z</time></trkpt><trkpt lat="55.1670436" lon="61.4033847"><ele>215.57142857142856</ele><time>2026-05-04T15:56:13.092Z</time></trkpt><trkpt lat="55.1671207" lon="61.4033666"><ele>215.71428571428572</ele><time>2026-05-04T15:56:16.095Z</time></trkpt><trkpt lat="55.1671857" lon="61.403371"><ele>215.85714285714286</ele><time>2026-05-04T15:56:18.088Z</time></trkpt><trkpt lat="55.1672509" lon="61.40337"><ele>216.0</ele><time>2026-05-04T15:56:20.091Z</time></trkpt><trkpt lat="55.1673241" lon="61.4033647"><ele>215.5</ele><time>2026-05-04T15:56:22.082Z</time></trkpt><trkpt lat="55.1674009" lon="61.4033573"><ele>215.0</ele><time>2026-05-04T15:56:24.078Z</time></trkpt><trkpt lat="55.1674838" lon="61.4033427"><ele>214.5</ele><time>2026-05-04T15:56:27.085Z</time></trkpt><trkpt lat="55.1675928" lon="61.4032934"><ele>214.0</ele><time>2026-05-04T15:56:32.088Z</time></trkpt><trkpt lat="55.1676307" lon="61.4031484"><ele>213.5</ele><time>2026-05-04T15:56:35.085Z</time></trkpt><trkpt lat="55.167641" lon="61.4030277"><ele>213.0</ele><time>2026-05-04T15:56:37.086Z</time></trkpt><trkpt lat="55.1676369" lon="61.4028756"><ele>213.0</ele><time>2026-05-04T15:56:40.087Z</time></trkpt><trkpt lat="55.1676285" lon="61.4027557"><ele>213.0</ele><time>2026-05-04T15:56:43.098Z</time></trkpt><trkpt lat="55.1676259" lon="61.4026346"><ele>213.0</ele><time>2026-05-04T15:56:45.093Z</time></trkpt><trkpt lat="55.1676211" lon="61.4025164"><ele>213.0</ele><time>2026-05-04T15:56:47.092Z</time></trkpt><trkpt lat="55.1676235" lon="61.4023579"><ele>213.0</ele><time>2026-05-04T15:56:50.083Z</time></trkpt><trkpt lat="55.1676273" lon="61.4022452"><ele>213.0</ele><time>2026-05-04T15:56:52.093Z</time></trkpt><trkpt lat="55.1676184" lon="61.4020826"><ele>212.99999999999997</ele><time>2026-05-04T15:56:55.089Z</time></trkpt><trkpt lat="55.1676153" lon="61.4019185"><ele>213.0</ele><time>2026-05-04T15:56:58.094Z</time></trkpt><trkpt lat="55.1676122" lon="61.4018029"><ele>213.0</ele><time>2026-05-04T15:57:00.091Z</time></trkpt><trkpt lat="55.1676088" lon="61.4016831"><ele>213.0</ele><time>2026-05-04T15:57:02.087Z</time></trkpt><trkpt lat="55.1676053" lon="61.401573"><ele>213.0</ele><time>2026-05-04T15:57:04.081Z</time></trkpt><trkpt lat="55.1676013" lon="61.4014433"><ele>212.99999999999997</ele><time>2026-05-04T15:57:07.095Z</time></trkpt><trkpt lat="55.1675935" lon="61.4013315"><ele>213.0</ele><time>2026-05-04T15:57:10.098Z</time></trkpt><trkpt lat="55.1675926" lon="61.4012146"><ele>213.0</ele><time>2026-05-04T15:57:13.098Z</time></trkpt><trkpt lat="55.1675901" lon="61.4010676"><ele>213.0</ele><time>2026-05-04T15:57:16.098Z</time></trkpt><trkpt lat="55.1675884" lon="61.4009226"><ele>213.0</ele><time>2026-05-04T15:57:19.081Z</time></trkpt><trkpt lat="55.1675897" lon="61.4007687"><ele>213.0</ele><time>2026-05-04T15:57:22.09Z</time></trkpt><trkpt lat="55.1675966" lon="61.4006517"><ele>213.0</ele><time>2026-05-04T15:57:25.087Z</time></trkpt><trkpt lat="55.1676232" lon="61.4005085"><ele>213.0</ele><time>2026-05-04T15:57:28.089Z</time></trkpt><trkpt lat="55.1676717" lon="61.4003976"><ele>212.85714285714283</ele><time>2026-05-04T15:57:31.086Z</time></trkpt><trkpt lat="55.1677052" lon="61.4002737"><ele>212.71428571428572</ele><time>2026-05-04T15:57:35.082Z</time></trkpt><trkpt lat="55.1677708" lon="61.4002532"><ele>212.57142857142856</ele><time>2026-05-04T15:57:40.087Z</time></trkpt><trkpt lat="55.1678395" lon="61.4002094"><ele>212.42857142857142</ele><time>2026-05-04T15:58:04.088Z</time></trkpt><trkpt lat="55.1679033" lon="61.4001235"><ele>212.28571428571428</ele><time>2026-05-04T15:58:08.088Z</time></trkpt><trkpt lat="55.1679711" lon="61.4000543"><ele>212.14285714285714</ele><time>2026-05-04T15:58:13.073Z</time></trkpt><trkpt lat="55.1680409" lon="61.4000217"><ele>212.0</ele><time>2026-05-04T15:58:17.083Z</time></trkpt><trkpt lat="55.1681038" lon="61.3999781"><ele>212.0</ele><time>2026-05-04T15:58:21.098Z</time></trkpt><trkpt lat="55.1681651" lon="61.3999008"><ele>212.0</ele><time>2026-05-04T15:58:26.089Z</time></trkpt><trkpt lat="55.1682147" lon="61.3998308"><ele>212.0</ele><time>2026-05-04T15:58:47.086Z</time></trkpt><trkpt lat="55.1682435" lon="61.3997229"><ele>212.0</ele><time>2026-05-04T15:58:54.047Z</time></trkpt><trkpt lat="55.1682557" lon="61.3996068"><ele>212.0</ele><time>2026-05-04T15:59:02.088Z</time></trkpt><trkpt lat="55.1682754" lon="61.3994755"><ele>212.0</ele><time>2026-05-04T15:59:13.09Z</time></trkpt><trkpt lat="55.1682115" lon="61.3995258"><ele>212.0</ele><time>2026-05-04T16:10:38.078Z</time></trkpt><trkpt lat="55.1681445" lon="61.399512"><ele>211.83333333333334</ele><time>2026-05-04T16:10:45.081Z</time></trkpt><trkpt lat="55.1680701" lon="61.3995287"><ele>211.66666666666669</ele><time>2026-05-04T16:10:51.085Z</time></trkpt><trkpt lat="55.1680034" lon="61.3995514"><ele>211.5</ele><time>2026-05-04T16:10:56.078Z</time></trkpt><trkpt lat="55.1679636" lon="61.3994471"><ele>211.33333333333331</ele><time>2026-05-04T16:11:13.08Z</time></trkpt><trkpt lat="55.1679301" lon="61.3993419"><ele>211.16666666666666</ele><time>2026-05-04T16:11:17.088Z</time></trkpt><trkpt lat="55.1679723" lon="61.3991222"><ele>211.0</ele><time>2026-05-04T16:11:20.092Z</time></trkpt><trkpt lat="55.1679585" lon="61.3989655"><ele>211.0</ele><time>2026-05-04T16:11:23.097Z</time></trkpt><trkpt lat="55.1679559" lon="61.398828"><ele>211.0</ele><time>2026-05-04T16:11:26.089Z</time></trkpt><trkpt lat="55.1679514" lon="61.3987061"><ele>211.0</ele><time>2026-05-04T16:11:30.095Z</time></trkpt><trkpt lat="55.1679494" lon="61.3985889"><ele>211.0</ele><time>2026-05-04T16:11:32.089Z</time></trkpt><trkpt lat="55.167947" lon="61.3984769"><ele>211.0</ele><time>2026-05-04T16:11:34.081Z</time></trkpt><trkpt lat="55.1678996" lon="61.3983863"><ele>211.0</ele><time>2026-05-04T16:11:36.088Z</time></trkpt><trkpt lat="55.1679035" lon="61.3982606"><ele>211.0</ele><time>2026-05-04T16:11:39.085Z</time></trkpt><trkpt lat="55.1679013" lon="61.3981283"><ele>211.28571428571428</ele><time>2026-05-04T16:11:42.084Z</time></trkpt><trkpt lat="55.1679066" lon="61.3980002"><ele>211.57142857142858</ele><time>2026-05-04T16:11:46.08Z</time></trkpt><trkpt lat="55.1679094" lon="61.3978503"><ele>211.85714285714283</ele><time>2026-05-04T16:11:51.087Z</time></trkpt><trkpt lat="55.1679114" lon="61.3977356"><ele>212.14285714285714</ele><time>2026-05-04T16:11:54.081Z</time></trkpt><trkpt lat="55.1678642" lon="61.3976483"><ele>212.42857142857142</ele><time>2026-05-04T16:12:08.081Z</time></trkpt><trkpt lat="55.1678016" lon="61.3976729"><ele>212.7142857142857</ele><time>2026-05-04T16:12:11.084Z</time></trkpt><trkpt lat="55.1677271" lon="61.3976875"><ele>213.0</ele><time>2026-05-04T16:12:15.078Z</time></trkpt><trkpt lat="55.1679085" lon="61.3974481"><ele>213.0</ele><time>2026-05-04T16:12:15.654Z</time></trkpt><trkpt lat="55.1678984" lon="61.3973291"><ele>213.0</ele><time>2026-05-04T16:12:20.084Z</time></trkpt><trkpt lat="55.1676541" lon="61.397663"><ele>213.0</ele><time>2026-05-04T16:12:34.09Z</time></trkpt><trkpt lat="55.1676023" lon="61.3977373"><ele>213.0</ele><time>2026-05-04T16:13:07.085Z</time></trkpt><trkpt lat="55.1675367" lon="61.3976846"><ele>213.0</ele><time>2026-05-04T16:13:09.027Z</time></trkpt><trkpt lat="55.1674619" lon="61.3976239"><ele>213.0</ele><time>2026-05-04T16:13:13.088Z</time></trkpt><trkpt lat="55.1673759" lon="61.39766"><ele>213.0</ele><time>2026-05-04T16:13:15.089Z</time></trkpt><trkpt lat="55.1673078" lon="61.3976633"><ele>213.0</ele><time>2026-05-04T16:13:17.089Z</time></trkpt><trkpt lat="55.1672422" lon="61.3976708"><ele>213.0</ele><time>2026-05-04T16:13:19.087Z</time></trkpt><trkpt lat="55.1671707" lon="61.397692"><ele>213.0</ele><time>2026-05-04T16:13:21.094Z</time></trkpt><trkpt lat="55.1670893" lon="61.3977007"><ele>213.33333333333334</ele><time>2026-05-04T16:13:24.085Z</time></trkpt><trkpt lat="55.1669955" lon="61.3977196"><ele>213.66666666666669</ele><time>2026-05-04T16:13:27.08Z</time></trkpt><trkpt lat="55.1669293" lon="61.3977258"><ele>214.0</ele><time>2026-05-04T16:13:29.084Z</time></trkpt><trkpt lat="55.1668444" lon="61.3977612"><ele>214.33333333333334</ele><time>2026-05-04T16:13:32.098Z</time></trkpt><trkpt lat="55.1667649" lon="61.3977904"><ele>214.66666666666669</ele><time>2026-05-04T16:13:36.095Z</time></trkpt><trkpt lat="55.1666939" lon="61.3977927"><ele>215.0</ele><time>2026-05-04T16:13:40.08Z</time></trkpt><trkpt lat="55.1666114" lon="61.3978113"><ele>215.0</ele><time>2026-05-04T16:13:44.087Z</time></trkpt><trkpt lat="55.1665418" lon="61.397825"><ele>215.0</ele><time>2026-05-04T16:13:48.098Z</time></trkpt><trkpt lat="55.1664783" lon="61.3978427"><ele>215.0</ele><time>2026-05-04T16:13:52.089Z</time></trkpt><trkpt lat="55.1663944" lon="61.3978344"><ele>215.0</ele><time>2026-05-04T16:13:56.083Z</time></trkpt><trkpt lat="55.1663164" lon="61.3978238"><ele>215.0</ele><time>2026-05-04T16:14:00.081Z</time></trkpt><trkpt lat="55.1662428" lon="61.39782"><ele>215.0</ele><time>2026-05-04T16:14:04.091Z</time></trkpt><trkpt lat="55.1661801" lon="61.3978319"><ele>215.0</ele><time>2026-05-04T16:14:07.084Z</time></trkpt><trkpt lat="55.1661101" lon="61.3978679"><ele>215.00000000000003</ele><time>2026-05-04T16:14:11.098Z</time></trkpt><trkpt lat="55.166042" lon="61.3978738"><ele>215.0</ele><time>2026-05-04T16:14:18.096Z</time></trkpt><trkpt lat="55.1659744" lon="61.3979092"><ele>215.0</ele><time>2026-05-04T16:14:23.095Z</time></trkpt><trkpt lat="55.1659078" lon="61.3978654"><ele>215.0</ele><time>2026-05-04T16:14:27.088Z</time></trkpt><trkpt lat="55.1658414" lon="61.3978577"><ele>215.00000000000003</ele><time>2026-05-04T16:14:30.088Z</time></trkpt><trkpt lat="55.1657416" lon="61.3978662"><ele>215.0</ele><time>2026-05-04T16:14:33.089Z</time></trkpt><trkpt lat="55.1656683" lon="61.3978686"><ele>215.0</ele><time>2026-05-04T16:14:35.092Z</time></trkpt><trkpt lat="55.1655974" lon="61.3978785"><ele>215.0</ele><time>2026-05-04T16:14:37.094Z</time></trkpt><trkpt lat="55.1655171" lon="61.3978824"><ele>215.0</ele><time>2026-05-04T16:14:40.089Z</time></trkpt><trkpt lat="55.1654435" lon="61.3978917"><ele>215.0</ele><time>2026-05-04T16:14:43.097Z</time></trkpt><trkpt lat="55.165362" lon="61.3978958"><ele>215.0</ele><time>2026-05-04T16:14:47.095Z</time></trkpt><trkpt lat="55.1652962" lon="61.3979086"><ele>215.0</ele><time>2026-05-04T16:14:51.095Z</time></trkpt><trkpt lat="55.1652235" lon="61.3979014"><ele>215.0</ele><time>2026-05-04T16:14:54.094Z</time></trkpt><trkpt lat="55.1651573" lon="61.3979033"><ele>215.00000000000003</ele><time>2026-05-04T16:14:57.083Z</time></trkpt><trkpt lat="55.1650924" lon="61.3979138"><ele>215.0</ele><time>2026-05-04T16:15:00.097Z</time></trkpt><trkpt lat="55.165014" lon="61.3979566"><ele>215.0</ele><time>2026-05-04T16:15:05.088Z</time></trkpt><trkpt lat="55.1649354" lon="61.3980097"><ele>215.0</ele><time>2026-05-04T16:15:10.085Z</time></trkpt><trkpt lat="55.164865" lon="61.3980012"><ele>215.00000000000003</ele><time>2026-05-04T16:15:16.088Z</time></trkpt><trkpt lat="55.1647893" lon="61.3980035"><ele>215.0</ele><time>2026-05-04T16:15:21.086Z</time></trkpt><trkpt lat="55.1647049" lon="61.3980217"><ele>215.16666666666669</ele><time>2026-05-04T16:15:24.096Z</time></trkpt><trkpt lat="55.1646235" lon="61.3980354"><ele>215.33333333333334</ele><time>2026-05-04T16:15:27.087Z</time></trkpt><trkpt lat="55.1645525" lon="61.3980396"><ele>215.5</ele><time>2026-05-04T16:15:30.086Z</time></trkpt><trkpt lat="55.164481" lon="61.3980502"><ele>215.66666666666669</ele><time>2026-05-04T16:15:33.085Z</time></trkpt><trkpt lat="55.1644154" lon="61.398064"><ele>215.83333333333334</ele><time>2026-05-04T16:15:36.09Z</time></trkpt><trkpt lat="55.1643338" lon="61.3980878"><ele>216.0</ele><time>2026-05-04T16:15:39.09Z</time></trkpt><trkpt lat="55.1642569" lon="61.398134"><ele>216.0</ele><time>2026-05-04T16:15:43.087Z</time></trkpt><trkpt lat="55.1641889" lon="61.3981575"><ele>216.0</ele><time>2026-05-04T16:15:48.081Z</time></trkpt><trkpt lat="55.1641186" lon="61.3981312"><ele>216.0</ele><time>2026-05-04T16:15:54.097Z</time></trkpt><trkpt lat="55.1640477" lon="61.3981537"><ele>216.0</ele><time>2026-05-04T16:15:59.097Z</time></trkpt><trkpt lat="55.1639927" lon="61.398093"><ele>216.0</ele><time>2026-05-04T16:16:04.085Z</time></trkpt><trkpt lat="55.163918" lon="61.3980718"><ele>216.0</ele><time>2026-05-04T16:16:08.092Z</time></trkpt><trkpt lat="55.1638461" lon="61.3980655"><ele>216.0</ele><time>2026-05-04T16:16:12.089Z</time></trkpt><trkpt lat="55.1637773" lon="61.398077"><ele>216.5</ele><time>2026-05-04T16:16:16.085Z</time></trkpt><trkpt lat="55.163715" lon="61.3981063"><ele>217.0</ele><time>2026-05-04T16:16:21.089Z</time></trkpt><trkpt lat="55.1636245" lon="61.3981127"><ele>217.5</ele><time>2026-05-04T16:16:24.089Z</time></trkpt><trkpt lat="55.1635485" lon="61.3981007"><ele>218.0</ele><time>2026-05-04T16:16:27.089Z</time></trkpt><trkpt lat="55.1634762" lon="61.3980897"><ele>218.5</ele><time>2026-05-04T16:16:30.096Z</time></trkpt><trkpt lat="55.1633967" lon="61.3981019"><ele>219.0</ele><time>2026-05-04T16:16:33.096Z</time></trkpt><trkpt lat="55.1633113" lon="61.3981113"><ele>219.0</ele><time>2026-05-04T16:16:36.089Z</time></trkpt><trkpt lat="55.1632214" lon="61.3981108"><ele>219.0</ele><time>2026-05-04T16:16:39.093Z</time></trkpt><trkpt lat="55.1631361" lon="61.398112"><ele>219.0</ele><time>2026-05-04T16:16:42.094Z</time></trkpt><trkpt lat="55.1630554" lon="61.3981189"><ele>219.0</ele><time>2026-05-04T16:16:45.088Z</time></trkpt><trkpt lat="55.1629851" lon="61.3981243"><ele>219.0</ele><time>2026-05-04T16:16:48.094Z</time></trkpt><trkpt lat="55.1629021" lon="61.3981311"><ele>219.0</ele><time>2026-05-04T16:16:52.092Z</time></trkpt><trkpt lat="55.1628294" lon="61.3981255"><ele>219.57142857142858</ele><time>2026-05-04T16:16:56.097Z</time></trkpt><trkpt lat="55.1627658" lon="61.3981483"><ele>220.14285714285714</ele><time>2026-05-04T16:16:59.088Z</time></trkpt><trkpt lat="55.1626929" lon="61.3981253"><ele>220.71428571428572</ele><time>2026-05-04T16:17:03.098Z</time></trkpt><trkpt lat="55.1626231" lon="61.3981386"><ele>221.28571428571428</ele><time>2026-05-04T16:17:16.098Z</time></trkpt><trkpt lat="55.1625412" lon="61.3981521"><ele>221.85714285714283</ele><time>2026-05-04T16:17:20.076Z</time></trkpt><trkpt lat="55.1624654" lon="61.3981574"><ele>222.42857142857142</ele><time>2026-05-04T16:17:23.094Z</time></trkpt><trkpt lat="55.162405" lon="61.39821"><ele>223.0</ele><time>2026-05-04T16:17:32.098Z</time></trkpt><trkpt lat="55.1623306" lon="61.3982464"><ele>223.49999999999997</ele><time>2026-05-04T16:17:36.081Z</time></trkpt><trkpt lat="55.16226" lon="61.3981828"><ele>224.0</ele><time>2026-05-04T16:17:40.081Z</time></trkpt><trkpt lat="55.162209" lon="61.3981174"><ele>224.5</ele><time>2026-05-04T16:17:43.094Z</time></trkpt><trkpt lat="55.1621348" lon="61.3981181"><ele>225.0</ele><time>2026-05-04T16:17:47.097Z</time></trkpt><trkpt lat="55.16206" lon="61.3981299"><ele>225.49999999999997</ele><time>2026-05-04T16:17:51.054Z</time></trkpt><trkpt lat="55.1619889" lon="61.3981587"><ele>226.0</ele><time>2026-05-04T16:17:55.053Z</time></trkpt><trkpt lat="55.1619023" lon="61.3981858"><ele>226.0</ele><time>2026-05-04T16:17:59.052Z</time></trkpt><trkpt lat="55.1618303" lon="61.3982076"><ele>226.0</ele><time>2026-05-04T16:18:02.053Z</time></trkpt><trkpt lat="55.1617599" lon="61.3982246"><ele>226.0</ele><time>2026-05-04T16:18:06.053Z</time></trkpt><trkpt lat="55.1616881" lon="61.3982321"><ele>226.0</ele><time>2026-05-04T16:18:13.052Z</time></trkpt><trkpt lat="55.1616116" lon="61.3982464"><ele>226.0</ele><time>2026-05-04T16:18:21.052Z</time></trkpt><trkpt lat="55.1615352" lon="61.3982624"><ele>226.0</ele><time>2026-05-04T16:18:26.052Z</time></trkpt><trkpt lat="55.1614679" lon="61.3982441"><ele>226.0</ele><time>2026-05-04T16:18:30.053Z</time></trkpt><trkpt lat="55.1614012" lon="61.3982422"><ele>225.99999999999997</ele><time>2026-05-04T16:19:16.052Z</time></trkpt><trkpt lat="55.1613305" lon="61.3982461"><ele>226.0</ele><time>2026-05-04T16:19:20.052Z</time></trkpt><trkpt lat="55.1612578" lon="61.3982473"><ele>226.0</ele><time>2026-05-04T16:19:23.053Z</time></trkpt><trkpt lat="55.1611901" lon="61.3982764"><ele>226.0</ele><time>2026-05-04T16:19:26.053Z</time></trkpt><trkpt lat="55.1611058" lon="61.3982941"><ele>225.99999999999997</ele><time>2026-05-04T16:19:30.052Z</time></trkpt><trkpt lat="55.1610136" lon="61.3982996"><ele>226.0</ele><time>2026-05-04T16:19:33.053Z</time></trkpt><trkpt lat="55.160947" lon="61.3983102"><ele>225.99999999999997</ele><time>2026-05-04T16:19:35.053Z</time></trkpt><trkpt lat="55.160881" lon="61.3983132"><ele>226.0</ele><time>2026-05-04T16:19:37.053Z</time></trkpt><trkpt lat="55.1607877" lon="61.3983196"><ele>226.0</ele><time>2026-05-04T16:19:40.052Z</time></trkpt><trkpt lat="55.1607106" lon="61.3983284"><ele>226.0</ele><time>2026-05-04T16:19:43.053Z</time></trkpt><trkpt lat="55.1606405" lon="61.3983394"><ele>225.99999999999997</ele><time>2026-05-04T16:19:46.052Z</time></trkpt><trkpt lat="55.1605741" lon="61.3983414"><ele>226.0</ele><time>2026-05-04T16:19:49.052Z</time></trkpt><trkpt lat="55.1604954" lon="61.3983499"><ele>226.16666666666666</ele><time>2026-05-04T16:19:53.053Z</time></trkpt><trkpt lat="55.1604362" lon="61.3982936"><ele>226.33333333333331</ele><time>2026-05-04T16:19:57.053Z</time></trkpt><trkpt lat="55.1603943" lon="61.3981843"><ele>226.5</ele><time>2026-05-04T16:20:01.053Z</time></trkpt><trkpt lat="55.1603967" lon="61.3980571"><ele>226.66666666666669</ele><time>2026-05-04T16:20:04.052Z</time></trkpt><trkpt lat="55.1604024" lon="61.3978957"><ele>226.83333333333334</ele><time>2026-05-04T16:20:08.053Z</time></trkpt><trkpt lat="55.1604068" lon="61.3977603"><ele>227.0</ele><time>2026-05-04T16:20:10.053Z</time></trkpt><trkpt lat="55.1604055" lon="61.3976231"><ele>227.0</ele><time>2026-05-04T16:20:12.052Z</time></trkpt><trkpt lat="55.1604022" lon="61.3975007"><ele>227.00000000000003</ele><time>2026-05-04T16:20:14.053Z</time></trkpt><trkpt lat="55.1603993" lon="61.3973778"><ele>227.0</ele><time>2026-05-04T16:20:16.053Z</time></trkpt><trkpt lat="55.1604009" lon="61.3972608"><ele>227.0</ele><time>2026-05-04T16:20:18.053Z</time></trkpt><trkpt lat="55.1603893" lon="61.3971015"><ele>227.00000000000003</ele><time>2026-05-04T16:20:21.052Z</time></trkpt><trkpt lat="55.1603856" lon="61.3969851"><ele>227.0</ele><time>2026-05-04T16:20:23.052Z</time></trkpt><trkpt lat="55.1603838" lon="61.3968706"><ele>227.0</ele><time>2026-05-04T16:20:25.052Z</time></trkpt><trkpt lat="55.1603912" lon="61.3967462"><ele>227.33333333333334</ele><time>2026-05-04T16:20:27.053Z</time></trkpt><trkpt lat="55.1603901" lon="61.3966301"><ele>227.66666666666669</ele><time>2026-05-04T16:20:29.053Z</time></trkpt><trkpt lat="55.1603855" lon="61.3964667"><ele>228.0</ele><time>2026-05-04T16:20:32.053Z</time></trkpt><trkpt lat="55.1603723" lon="61.3963085"><ele>228.33333333333331</ele><time>2026-05-04T16:20:35.052Z</time></trkpt><trkpt lat="55.1603316" lon="61.3962171"><ele>228.66666666666666</ele><time>2026-05-04T16:20:37.052Z</time></trkpt><trkpt lat="55.1602399" lon="61.3962432"><ele>229.0</ele><time>2026-05-04T16:20:39.052Z</time></trkpt><trkpt lat="55.1603029" lon="61.3961957"><ele>229.0</ele><time>2026-05-04T16:21:03.053Z</time></trkpt><trkpt lat="55.1602375" lon="61.3962217"><ele>229.0</ele><time>2026-05-04T16:21:08.053Z</time></trkpt><trkpt lat="55.1601746" lon="61.3962474"><ele>229.0</ele><time>2026-05-04T16:21:13.052Z</time></trkpt><trkpt lat="55.1600991" lon="61.3962681"><ele>229.0</ele><time>2026-05-04T16:21:16.068Z</time></trkpt><trkpt lat="55.1600252" lon="61.3962851"><ele>229.0</ele><time>2026-05-04T16:21:21.052Z</time></trkpt><trkpt lat="55.1599509" lon="61.3962932"><ele>229.0</ele><time>2026-05-04T16:21:26.053Z</time></trkpt><trkpt lat="55.1598803" lon="61.3962836"><ele>229.0</ele><time>2026-05-04T16:22:18.052Z</time></trkpt><trkpt lat="55.1598073" lon="61.3962922"><ele>229.71428571428572</ele><time>2026-05-04T16:22:23.052Z</time></trkpt><trkpt lat="55.159799" lon="61.3961803"><ele>230.42857142857144</ele><time>2026-05-04T16:22:25.052Z</time></trkpt><trkpt lat="55.1597251" lon="61.3961955"><ele>231.14285714285717</ele><time>2026-05-04T16:22:30.064Z</time></trkpt><trkpt lat="55.1596537" lon="61.396264"><ele>231.85714285714286</ele><time>2026-05-04T16:22:34.861Z</time></trkpt><trkpt lat="55.1595925" lon="61.3962989"><ele>232.5714285714286</ele><time>2026-05-04T16:22:39.053Z</time></trkpt><trkpt lat="55.1595215" lon="61.3963091"><ele>233.2857142857143</ele><time>2026-05-04T16:22:44.053Z</time></trkpt><trkpt lat="55.1594502" lon="61.396316"><ele>234.0</ele><time>2026-05-04T16:22:49.053Z</time></trkpt><trkpt lat="55.1593861" lon="61.3962855"><ele>234.0</ele><time>2026-05-04T16:22:53.053Z</time></trkpt><trkpt lat="55.1593196" lon="61.3963011"><ele>234.00000000000003</ele><time>2026-05-04T16:22:58.053Z</time></trkpt><trkpt lat="55.159251" lon="61.396257"><ele>234.0</ele><time>2026-05-04T16:23:02.985Z</time></trkpt><trkpt lat="55.1591861" lon="61.3962391"><ele>234.0</ele><time>2026-05-04T16:23:07.052Z</time></trkpt><trkpt lat="55.1591233" lon="61.3962193"><ele>234.00000000000003</ele><time>2026-05-04T16:23:13.052Z</time></trkpt><trkpt lat="55.1590604" lon="61.3962661"><ele>234.0</ele><time>2026-05-04T16:23:18.052Z</time></trkpt><trkpt lat="55.1589984" lon="61.3963"><ele>234.0</ele><time>2026-05-04T16:23:22.964Z</time></trkpt><trkpt lat="55.1589395" lon="61.3963473"><ele>234.0</ele><time>2026-05-04T16:23:28.052Z</time></trkpt><trkpt lat="55.1588656" lon="61.3963431"><ele>234.00000000000003</ele><time>2026-05-04T16:23:34.053Z</time></trkpt><trkpt lat="55.158802" lon="61.3963262"><ele>234.0</ele><time>2026-05-04T16:23:38.052Z</time></trkpt><trkpt lat="55.1587315" lon="61.3962891"><ele>234.0</ele><time>2026-05-04T16:23:43.053Z</time></trkpt><trkpt lat="55.1586748" lon="61.3962237"><ele>234.00000000000003</ele><time>2026-05-04T16:23:48.053Z</time></trkpt><trkpt lat="55.1586113" lon="61.3961838"><ele>234.0</ele><time>2026-05-04T16:23:56.053Z</time></trkpt><trkpt lat="55.1585452" lon="61.3961397"><ele>234.0</ele><time>2026-05-04T16:24:05.052Z</time></trkpt><trkpt lat="55.1584742" lon="61.3961609"><ele>234.14285714285717</ele><time>2026-05-04T16:24:10.052Z</time></trkpt><trkpt lat="55.1583961" lon="61.3961861"><ele>234.2857142857143</ele><time>2026-05-04T16:24:15.052Z</time></trkpt><trkpt lat="55.158321" lon="61.3962312"><ele>234.42857142857144</ele><time>2026-05-04T16:24:21.052Z</time></trkpt><trkpt lat="55.1582568" lon="61.3962667"><ele>234.57142857142856</ele><time>2026-05-04T16:24:26.05Z</time></trkpt><trkpt lat="55.1581928" lon="61.3962145"><ele>234.7142857142857</ele><time>2026-05-04T16:24:55.044Z</time></trkpt><trkpt lat="55.1581394" lon="61.3962874"><ele>234.85714285714283</ele><time>2026-05-04T16:25:00.053Z</time></trkpt><trkpt lat="55.1581166" lon="61.3964093"><ele>235.0</ele><time>2026-05-04T16:25:06.053Z</time></trkpt><trkpt lat="55.1581134" lon="61.3965648"><ele>235.14285714285714</ele><time>2026-05-04T16:25:12.025Z</time></trkpt><trkpt lat="55.1581014" lon="61.3966776"><ele>235.28571428571428</ele><time>2026-05-04T16:25:17.052Z</time></trkpt><trkpt lat="55.1580606" lon="61.3967838"><ele>235.42857142857142</ele><time>2026-05-04T16:25:21.053Z</time></trkpt><trkpt lat="55.1580399" lon="61.3969053"><ele>235.57142857142856</ele><time>2026-05-04T16:25:25.053Z</time></trkpt><trkpt lat="55.1580256" lon="61.3970382"><ele>235.71428571428572</ele><time>2026-05-04T16:25:30.069Z</time></trkpt><trkpt lat="55.1579965" lon="61.3971362"><ele>235.85714285714283</ele><time>2026-05-04T16:25:35.068Z</time></trkpt><trkpt lat="55.1579717" lon="61.3972633"><ele>236.0</ele><time>2026-05-04T16:25:41.053Z</time></trkpt><trkpt lat="55.1579421" lon="61.3973817"><ele>236.0</ele><time>2026-05-04T16:25:47.052Z</time></trkpt><trkpt lat="55.1579081" lon="61.3975154"><ele>236.0</ele><time>2026-05-04T16:25:53.052Z</time></trkpt><trkpt lat="55.1578687" lon="61.3976065"><ele>236.0</ele><time>2026-05-04T16:25:57.983Z</time></trkpt><trkpt lat="55.1578114" lon="61.3976832"><ele>236.0</ele><time>2026-05-04T16:26:03.93Z</time></trkpt><trkpt lat="55.1577707" lon="61.3977829"><ele>236.0</ele><time>2026-05-04T16:26:09.008Z</time></trkpt><trkpt lat="55.1577002" lon="61.3978311"><ele>236.0</ele><time>2026-05-04T16:26:17.826Z</time></trkpt><trkpt lat="55.1576212" lon="61.3978141"><ele>236.0</ele><time>2026-05-04T16:26:21.861Z</time></trkpt><trkpt lat="55.1575625" lon="61.397724"><ele>236.0</ele><time>2026-05-04T16:26:24.831Z</time></trkpt><trkpt lat="55.15749" lon="61.3976635"><ele>236.0</ele><time>2026-05-04T16:26:28.808Z</time></trkpt><trkpt lat="55.1574237" lon="61.3976096"><ele>236.0</ele><time>2026-05-04T16:26:33.944Z</time></trkpt><trkpt lat="55.1573553" lon="61.3976294"><ele>236.0</ele><time>2026-05-04T16:26:38.052Z</time></trkpt><trkpt lat="55.1573052" lon="61.3977189"><ele>236.0</ele><time>2026-05-04T16:26:44.052Z</time></trkpt><trkpt lat="55.1572934" lon="61.3978412"><ele>236.0</ele><time>2026-05-04T16:26:49.087Z</time></trkpt><trkpt lat="55.1572623" lon="61.3979457"><ele>236.0</ele><time>2026-05-04T16:26:54.053Z</time></trkpt><trkpt lat="55.1572231" lon="61.3980484"><ele>237.14285714285714</ele><time>2026-05-04T16:26:59.053Z</time></trkpt><trkpt lat="55.1571742" lon="61.3981314"><ele>238.28571428571428</ele><time>2026-05-04T16:27:04.052Z</time></trkpt><trkpt lat="55.157136" lon="61.398229"><ele>239.42857142857142</ele><time>2026-05-04T16:27:09.052Z</time></trkpt><trkpt lat="55.1570855" lon="61.3983101"><ele>240.57142857142856</ele><time>2026-05-04T16:27:15.02Z</time></trkpt><trkpt lat="55.1570415" lon="61.3983927"><ele>241.71428571428572</ele><time>2026-05-04T16:27:20.053Z</time></trkpt><trkpt lat="55.1569928" lon="61.3984867"><ele>242.85714285714283</ele><time>2026-05-04T16:27:24.052Z</time></trkpt><trkpt lat="55.1569321" lon="61.3985558"><ele>243.99999999999997</ele><time>2026-05-04T16:27:29.052Z</time></trkpt><trkpt lat="55.1568483" lon="61.3985611"><ele>243.99999999999997</ele><time>2026-05-04T16:27:34.052Z</time></trkpt><trkpt lat="55.1567744" lon="61.3985557"><ele>244.0</ele><time>2026-05-04T16:27:38.969Z</time></trkpt><trkpt lat="55.1567074" lon="61.398564"><ele>243.99999999999997</ele><time>2026-05-04T16:27:43.95Z</time></trkpt><trkpt lat="55.1566558" lon="61.3986581"><ele>243.99999999999997</ele><time>2026-05-04T16:27:49.08Z</time></trkpt><trkpt lat="55.1565878" lon="61.398654"><ele>244.0</ele><time>2026-05-04T16:27:54.052Z</time></trkpt><trkpt lat="55.1565141" lon="61.3986503"><ele>243.99999999999997</ele><time>2026-05-04T16:27:59.053Z</time></trkpt><trkpt lat="55.15644" lon="61.3986349"><ele>243.99999999999997</ele><time>2026-05-04T16:28:04.058Z</time></trkpt><trkpt lat="55.1563589" lon="61.3986624"><ele>244.28571428571425</ele><time>2026-05-04T16:28:09.052Z</time></trkpt><trkpt lat="55.156275" lon="61.3986875"><ele>244.57142857142856</ele><time>2026-05-04T16:28:15.007Z</time></trkpt><trkpt lat="55.1561946" lon="61.3986759"><ele>244.85714285714286</ele><time>2026-05-04T16:28:21.053Z</time></trkpt><trkpt lat="55.1561202" lon="61.3986858"><ele>245.14285714285714</ele><time>2026-05-04T16:28:27.052Z</time></trkpt><trkpt lat="55.1560549" lon="61.3986663"><ele>245.42857142857144</ele><time>2026-05-04T16:28:32.053Z</time></trkpt><trkpt lat="55.1559846" lon="61.3986825"><ele>245.71428571428575</ele><time>2026-05-04T16:28:37.49Z</time></trkpt><trkpt lat="55.1559202" lon="61.3986811"><ele>246.00000000000003</ele><time>2026-05-04T16:28:42.635Z</time></trkpt><trkpt lat="55.1558706" lon="61.3986065"><ele>246.0</ele><time>2026-05-04T16:28:47.054Z</time></trkpt><trkpt lat="55.1558062" lon="61.398598"><ele>246.0</ele><time>2026-05-04T16:28:52.053Z</time></trkpt><trkpt lat="55.1557357" lon="61.3986155"><ele>246.0</ele><time>2026-05-04T16:28:58.054Z</time></trkpt><trkpt lat="55.1556763" lon="61.3986583"><ele>246.0</ele><time>2026-05-04T16:29:05.053Z</time></trkpt><trkpt lat="55.1556153" lon="61.3986263"><ele>246.0</ele><time>2026-05-04T16:29:52.053Z</time></trkpt><trkpt lat="55.1554682" lon="61.3986163"><ele>246.0</ele><time>2026-05-04T16:30:00.053Z</time></trkpt><trkpt lat="55.1553984" lon="61.3986304"><ele>246.16666666666666</ele><time>2026-05-04T16:30:07.053Z</time></trkpt><trkpt lat="55.155336" lon="61.3986041"><ele>246.33333333333331</ele><time>2026-05-04T16:30:11.054Z</time></trkpt><trkpt lat="55.1552808" lon="61.3986791"><ele>246.5</ele><time>2026-05-04T16:30:26.053Z</time></trkpt><trkpt lat="55.1552169" lon="61.3986743"><ele>246.66666666666666</ele><time>2026-05-04T16:30:35.054Z</time></trkpt><trkpt lat="55.1551468" lon="61.398749"><ele>246.83333333333331</ele><time>2026-05-04T16:30:38.054Z</time></trkpt><trkpt lat="55.1550359" lon="61.398674"><ele>247.0</ele><time>2026-05-04T16:30:41.054Z</time></trkpt><trkpt lat="55.1549448" lon="61.3986503"><ele>247.33333333333331</ele><time>2026-05-04T16:30:44.053Z</time></trkpt><trkpt lat="55.1548695" lon="61.3986546"><ele>247.66666666666666</ele><time>2026-05-04T16:30:47.053Z</time></trkpt><trkpt lat="55.1547935" lon="61.3986541"><ele>248.0</ele><time>2026-05-04T16:30:50.054Z</time></trkpt><trkpt lat="55.1547239" lon="61.3986177"><ele>248.33333333333331</ele><time>2026-05-04T16:30:54.054Z</time></trkpt><trkpt lat="55.1546465" lon="61.3985931"><ele>248.66666666666666</ele><time>2026-05-04T16:30:59.053Z</time></trkpt><trkpt lat="55.1545715" lon="61.3985551"><ele>249.0</ele><time>2026-05-04T16:31:03.054Z</time></trkpt><trkpt lat="55.1545032" lon="61.398513"><ele>249.0</ele><time>2026-05-04T16:31:07.054Z</time></trkpt><trkpt lat="55.1544228" lon="61.3984889"><ele>249.0</ele><time>2026-05-04T16:31:12.053Z</time></trkpt><trkpt lat="55.1543499" lon="61.3984715"><ele>249.0</ele><time>2026-05-04T16:31:15.054Z</time></trkpt><trkpt lat="55.154274" lon="61.3984205"><ele>249.0</ele><time>2026-05-04T16:31:18.053Z</time></trkpt><trkpt lat="55.1541843" lon="61.3984065"><ele>249.0</ele><time>2026-05-04T16:31:21.053Z</time></trkpt><trkpt lat="55.1541243" lon="61.3983671"><ele>249.0</ele><time>2026-05-04T16:31:23.054Z</time></trkpt><trkpt lat="55.1540597" lon="61.3983262"><ele>248.66666666666666</ele><time>2026-05-04T16:31:28.053Z</time></trkpt><trkpt lat="55.1539964" lon="61.3983152"><ele>248.33333333333331</ele><time>2026-05-04T16:31:31.053Z</time></trkpt><trkpt lat="55.1539236" lon="61.3983072"><ele>248.0</ele><time>2026-05-04T16:31:39.053Z</time></trkpt><trkpt lat="55.1538418" lon="61.3983209"><ele>247.66666666666666</ele><time>2026-05-04T16:31:43.053Z</time></trkpt><trkpt lat="55.1537647" lon="61.3982907"><ele>247.33333333333331</ele><time>2026-05-04T16:31:46.054Z</time></trkpt><trkpt lat="55.1536838" lon="61.3982709"><ele>247.0</ele><time>2026-05-04T16:31:49.054Z</time></trkpt><trkpt lat="55.1536071" lon="61.398246"><ele>246.99999999999997</ele><time>2026-05-04T16:31:52.054Z</time></trkpt><trkpt lat="55.1535285" lon="61.3982509"><ele>247.0</ele><time>2026-05-04T16:31:56.053Z</time></trkpt><trkpt lat="55.1534437" lon="61.3982595"><ele>247.0</ele><time>2026-05-04T16:32:00.053Z</time></trkpt><trkpt lat="55.1533498" lon="61.3982971"><ele>247.0</ele><time>2026-05-04T16:32:03.053Z</time></trkpt><trkpt lat="55.1532609" lon="61.3983166"><ele>246.99999999999997</ele><time>2026-05-04T16:32:06.053Z</time></trkpt><trkpt lat="55.153194" lon="61.3983227"><ele>247.0</ele><time>2026-05-04T16:32:08.054Z</time></trkpt><trkpt lat="55.1531059" lon="61.3983188"><ele>247.16666666666666</ele><time>2026-05-04T16:32:11.054Z</time></trkpt><trkpt lat="55.1530417" lon="61.3983128"><ele>247.33333333333331</ele><time>2026-05-04T16:32:13.054Z</time></trkpt><trkpt lat="55.1529728" lon="61.3983056"><ele>247.5</ele><time>2026-05-04T16:32:15.053Z</time></trkpt><trkpt lat="55.1529069" lon="61.398296"><ele>247.66666666666669</ele><time>2026-05-04T16:32:17.053Z</time></trkpt><trkpt lat="55.152836" lon="61.3982757"><ele>247.83333333333334</ele><time>2026-05-04T16:32:19.054Z</time></trkpt><trkpt lat="55.1527425" lon="61.3982598"><ele>248.0</ele><time>2026-05-04T16:32:22.054Z</time></trkpt><trkpt lat="55.1526511" lon="61.398263"><ele>248.00000000000003</ele><time>2026-05-04T16:32:25.054Z</time></trkpt><trkpt lat="55.1525663" lon="61.3982622"><ele>248.0</ele><time>2026-05-04T16:32:28.054Z</time></trkpt><trkpt lat="55.1524814" lon="61.3982735"><ele>248.0</ele><time>2026-05-04T16:32:31.053Z</time></trkpt><trkpt lat="55.1523962" lon="61.3982738"><ele>248.0</ele><time>2026-05-04T16:32:34.054Z</time></trkpt><trkpt lat="55.1523137" lon="61.3982666"><ele>248.00000000000003</ele><time>2026-05-04T16:32:37.053Z</time></trkpt><trkpt lat="55.1522346" lon="61.3982785"><ele>248.0</ele><time>2026-05-04T16:32:40.053Z</time></trkpt><trkpt lat="55.1521595" lon="61.3982923"><ele>248.2857142857143</ele><time>2026-05-04T16:32:43.054Z</time></trkpt><trkpt lat="55.1520948" lon="61.3982796"><ele>248.5714285714286</ele><time>2026-05-04T16:32:47.053Z</time></trkpt><trkpt lat="55.152027" lon="61.398204"><ele>248.85714285714286</ele><time>2026-05-04T16:32:53.054Z</time></trkpt><trkpt lat="55.1519611" lon="61.398177"><ele>249.14285714285717</ele><time>2026-05-04T16:32:56.054Z</time></trkpt><trkpt lat="55.1518961" lon="61.3981902"><ele>249.42857142857144</ele><time>2026-05-04T16:32:58.054Z</time></trkpt><trkpt lat="55.1518186" lon="61.3982237"><ele>249.71428571428572</ele><time>2026-05-04T16:33:01.054Z</time></trkpt><trkpt lat="55.151749" lon="61.3982115"><ele>250.0</ele><time>2026-05-04T16:33:04.053Z</time></trkpt><trkpt lat="55.1516687" lon="61.398234"><ele>249.99999999999997</ele><time>2026-05-04T16:33:07.053Z</time></trkpt><trkpt lat="55.1515798" lon="61.3982139"><ele>250.0</ele><time>2026-05-04T16:33:10.054Z</time></trkpt><trkpt lat="55.1514925" lon="61.3982097"><ele>250.0</ele><time>2026-05-04T16:33:13.054Z</time></trkpt><trkpt lat="55.1514102" lon="61.3982194"><ele>250.0</ele><time>2026-05-04T16:33:16.053Z</time></trkpt><trkpt lat="55.1513321" lon="61.3982421"><ele>249.99999999999997</ele><time>2026-05-04T16:33:19.053Z</time></trkpt><trkpt lat="55.1512486" lon="61.3982587"><ele>250.0</ele><time>2026-05-04T16:33:23.053Z</time></trkpt><trkpt lat="55.1511685" lon="61.3982705"><ele>250.14285714285714</ele><time>2026-05-04T16:33:26.054Z</time></trkpt><trkpt lat="55.1510891" lon="61.3982842"><ele>250.28571428571428</ele><time>2026-05-04T16:33:29.053Z</time></trkpt><trkpt lat="55.1510256" lon="61.3982877"><ele>250.42857142857142</ele><time>2026-05-04T16:33:32.054Z</time></trkpt><trkpt lat="55.1509596" lon="61.3982933"><ele>250.57142857142856</ele><time>2026-05-04T16:33:35.053Z</time></trkpt><trkpt lat="55.1508823" lon="61.3982764"><ele>250.71428571428572</ele><time>2026-05-04T16:33:39.053Z</time></trkpt><trkpt lat="55.1508185" lon="61.3982748"><ele>250.85714285714283</ele><time>2026-05-04T16:33:42.053Z</time></trkpt><trkpt lat="55.1507477" lon="61.3983033"><ele>250.99999999999997</ele><time>2026-05-04T16:33:52.054Z</time></trkpt><trkpt lat="55.1506752" lon="61.3983021"><ele>251.00000000000003</ele><time>2026-05-04T16:33:55.053Z</time></trkpt><trkpt lat="55.150589" lon="61.3983191"><ele>251.0</ele><time>2026-05-04T16:33:58.054Z</time></trkpt><trkpt lat="55.1505125" lon="61.3983472"><ele>251.0</ele><time>2026-05-04T16:34:01.054Z</time></trkpt><trkpt lat="55.1504493" lon="61.3983492"><ele>251.0</ele><time>2026-05-04T16:34:03.054Z</time></trkpt><trkpt lat="55.1503614" lon="61.3983356"><ele>251.00000000000003</ele><time>2026-05-04T16:34:06.054Z</time></trkpt><trkpt lat="55.1502854" lon="61.3983108"><ele>251.0</ele><time>2026-05-04T16:34:08.054Z</time></trkpt><trkpt lat="55.150219" lon="61.3982935"><ele>251.00000000000003</ele><time>2026-05-04T16:34:10.053Z</time></trkpt><trkpt lat="55.1501499" lon="61.3983039"><ele>251.0</ele><time>2026-05-04T16:34:12.054Z</time></trkpt><trkpt lat="55.1500597" lon="61.3983236"><ele>251.0</ele><time>2026-05-04T16:34:15.054Z</time></trkpt><trkpt lat="55.1499654" lon="61.3983275"><ele>251.0</ele><time>2026-05-04T16:34:18.054Z</time></trkpt><trkpt lat="55.1499019" lon="61.398335"><ele>251.00000000000003</ele><time>2026-05-04T16:34:20.053Z</time></trkpt><trkpt lat="55.1498187" lon="61.3983315"><ele>251.0</ele><time>2026-05-04T16:34:23.053Z</time></trkpt><trkpt lat="55.1497455" lon="61.3983321"><ele>251.1428571428571</ele><time>2026-05-04T16:34:25.054Z</time></trkpt><trkpt lat="55.1496704" lon="61.3983485"><ele>251.28571428571428</ele><time>2026-05-04T16:34:27.053Z</time></trkpt><trkpt lat="55.149602" lon="61.3983475"><ele>251.42857142857142</ele><time>2026-05-04T16:34:29.054Z</time></trkpt><trkpt lat="55.1495389" lon="61.3983618"><ele>251.57142857142856</ele><time>2026-05-04T16:34:31.054Z</time></trkpt><trkpt lat="55.1494673" lon="61.3983676"><ele>251.71428571428572</ele><time>2026-05-04T16:34:34.053Z</time></trkpt><trkpt lat="55.1494001" lon="61.3983585"><ele>251.85714285714286</ele><time>2026-05-04T16:34:37.053Z</time></trkpt><trkpt lat="55.1493259" lon="61.3983346"><ele>252.0</ele><time>2026-05-04T16:34:41.054Z</time></trkpt><trkpt lat="55.1492529" lon="61.3983474"><ele>252.0</ele><time>2026-05-04T16:34:46.054Z</time></trkpt><trkpt lat="55.1491737" lon="61.3983128"><ele>252.0</ele><time>2026-05-04T16:35:08.053Z</time></trkpt><trkpt lat="55.1490906" lon="61.398331"><ele>252.0</ele><time>2026-05-04T16:35:11.054Z</time></trkpt><trkpt lat="55.1490212" lon="61.3983339"><ele>252.0</ele><time>2026-05-04T16:35:14.054Z</time></trkpt><trkpt lat="55.1489397" lon="61.3983221"><ele>252.0</ele><time>2026-05-04T16:35:19.053Z</time></trkpt><trkpt lat="55.1488766" lon="61.398345"><ele>252.0</ele><time>2026-05-04T16:35:22.053Z</time></trkpt><trkpt lat="55.1488002" lon="61.3983625"><ele>251.66666666666666</ele><time>2026-05-04T16:35:25.054Z</time></trkpt><trkpt lat="55.1487093" lon="61.3983658"><ele>251.33333333333331</ele><time>2026-05-04T16:35:28.054Z</time></trkpt><trkpt lat="55.1486189" lon="61.3983868"><ele>251.0</ele><time>2026-05-04T16:35:31.054Z</time></trkpt><trkpt lat="55.1485552" lon="61.3984063"><ele>250.66666666666666</ele><time>2026-05-04T16:35:33.053Z</time></trkpt><trkpt lat="55.1484858" lon="61.3984318"><ele>250.33333333333331</ele><time>2026-05-04T16:35:37.054Z</time></trkpt><trkpt lat="55.1484189" lon="61.3983888"><ele>250.0</ele><time>2026-05-04T16:35:41.053Z</time></trkpt><trkpt lat="55.1483431" lon="61.3984246"><ele>250.0</ele><time>2026-05-04T16:35:45.053Z</time></trkpt><trkpt lat="55.1482852" lon="61.3984719"><ele>250.0</ele><time>2026-05-04T16:36:43.053Z</time></trkpt><trkpt lat="55.1482036" lon="61.3984544"><ele>250.0</ele><time>2026-05-04T16:38:12.054Z</time></trkpt><trkpt lat="55.148126" lon="61.398484"><ele>250.0</ele><time>2026-05-04T16:38:15.054Z</time></trkpt><trkpt lat="55.1480652" lon="61.3984527"><ele>250.0</ele><time>2026-05-04T16:38:18.054Z</time></trkpt><trkpt lat="55.1480068" lon="61.3983822"><ele>250.0</ele><time>2026-05-04T16:38:22.053Z</time></trkpt><trkpt lat="55.1479331" lon="61.3983663"><ele>250.0</ele><time>2026-05-04T16:38:25.053Z</time></trkpt><trkpt lat="55.1478587" lon="61.3984213"><ele>249.99999999999997</ele><time>2026-05-04T16:38:32.053Z</time></trkpt><trkpt lat="55.1477899" lon="61.3984359"><ele>250.0</ele><time>2026-05-04T16:38:35.054Z</time></trkpt><trkpt lat="55.14771" lon="61.398439"><ele>250.0</ele><time>2026-05-04T16:38:37.054Z</time></trkpt><trkpt lat="55.1476061" lon="61.3984309"><ele>250.0</ele><time>2026-05-04T16:38:39.054Z</time></trkpt><trkpt lat="55.1474949" lon="61.3984164"><ele>249.99999999999997</ele><time>2026-05-04T16:38:41.054Z</time></trkpt><trkpt lat="55.1474141" lon="61.3984012"><ele>250.0</ele><time>2026-05-04T16:38:43.054Z</time></trkpt><trkpt lat="55.1473039" lon="61.3984165"><ele>249.66666666666666</ele><time>2026-05-04T16:38:46.053Z</time></trkpt><trkpt lat="55.1472285" lon="61.3984802"><ele>249.33333333333331</ele><time>2026-05-04T16:38:48.054Z</time></trkpt><trkpt lat="55.1471988" lon="61.3986214"><ele>249.0</ele><time>2026-05-04T16:38:51.053Z</time></trkpt><trkpt lat="55.1471119" lon="61.3986148"><ele>248.66666666666669</ele><time>2026-05-04T16:38:55.054Z</time></trkpt><trkpt lat="55.1470242" lon="61.3985965"><ele>248.33333333333334</ele><time>2026-05-04T16:38:57.053Z</time></trkpt><trkpt lat="55.1469509" lon="61.3986601"><ele>248.0</ele><time>2026-05-04T16:39:02.054Z</time></trkpt><trkpt lat="55.146892" lon="61.39877"><ele>248.00000000000003</ele><time>2026-05-04T16:39:08.053Z</time></trkpt><trkpt lat="55.1468003" lon="61.398785"><ele>248.0</ele><time>2026-05-04T16:39:10.054Z</time></trkpt><trkpt lat="55.1467323" lon="61.3987784"><ele>248.0</ele><time>2026-05-04T16:39:12.056Z</time></trkpt><trkpt lat="55.1466571" lon="61.398751"><ele>248.0</ele><time>2026-05-04T16:39:15.055Z</time></trkpt><trkpt lat="55.1466027" lon="61.3988145"><ele>248.00000000000003</ele><time>2026-05-04T16:39:19.056Z</time></trkpt><trkpt lat="55.1465316" lon="61.398944"><ele>248.0</ele><time>2026-05-04T16:39:24.056Z</time></trkpt><trkpt lat="55.1464713" lon="61.3990403"><ele>247.5</ele><time>2026-05-04T16:39:26.055Z</time></trkpt><trkpt lat="55.1464914" lon="61.3991834"><ele>247.0</ele><time>2026-05-04T16:39:29.056Z</time></trkpt><trkpt lat="55.1462652" lon="61.3990342"><ele>246.5</ele><time>2026-05-04T16:39:33.056Z</time></trkpt><trkpt lat="55.1461967" lon="61.3990223"><ele>246.0</ele><time>2026-05-04T16:39:35.056Z</time></trkpt><trkpt lat="55.1461311" lon="61.3991314"><ele>246.0</ele><time>2026-05-04T16:39:38.055Z</time></trkpt><trkpt lat="55.146162" lon="61.3992304"><ele>246.0</ele><time>2026-05-04T16:39:40.056Z</time></trkpt><trkpt lat="55.1461609" lon="61.3993737"><ele>246.0</ele><time>2026-05-04T16:39:43.056Z</time></trkpt><trkpt lat="55.146147" lon="61.3995136"><ele>246.0</ele><time>2026-05-04T16:39:47.056Z</time></trkpt><trkpt lat="55.1460883" lon="61.3996269"><ele>246.0</ele><time>2026-05-04T16:39:49.056Z</time></trkpt><trkpt lat="55.1460241" lon="61.3997486"><ele>246.0</ele><time>2026-05-04T16:39:51.056Z</time></trkpt><trkpt lat="55.1459966" lon="61.3996463"><ele>246.0</ele><time>2026-05-04T16:39:53.055Z</time></trkpt><trkpt lat="55.1459004" lon="61.3996287"><ele>246.0</ele><time>2026-05-04T16:39:56.055Z</time></trkpt><trkpt lat="55.1454221" lon="61.3997093"><ele>247.0</ele><time>2026-05-04T16:40:07.804Z</time></trkpt><trkpt lat="55.1454335" lon="61.4005286"><ele>247.0</ele><time>2026-05-04T16:40:13.979Z</time></trkpt><trkpt lat="55.1453041" lon="61.4009509"><ele>247.0</ele><time>2026-05-04T16:40:20.085Z</time></trkpt><trkpt lat="55.1451162" lon="61.4005015"><ele>246.5</ele><time>2026-05-04T16:40:25.71Z</time></trkpt><trkpt lat="55.1448691" lon="61.4005106"><ele>246.0</ele><time>2026-05-04T16:40:31.751Z</time></trkpt><trkpt lat="55.1450751" lon="61.3999853"><ele>248.0</ele><time>2026-05-04T16:40:49.846Z</time></trkpt><trkpt lat="55.1457614" lon="61.4032054"><ele>246.5</ele><time>2026-05-04T16:41:07.904Z</time></trkpt><trkpt lat="55.1453489" lon="61.4033297"><ele>245.0</ele><time>2026-05-04T16:41:23.056Z</time></trkpt><trkpt lat="55.1453333" lon="61.403175"><ele>245.00000000000003</ele><time>2026-05-04T16:41:34.055Z</time></trkpt><trkpt lat="55.145355" lon="61.403067"><ele>245.0</ele><time>2026-05-04T16:41:43.056Z</time></trkpt><trkpt lat="55.145398" lon="61.4031969"><ele>245.0</ele><time>2026-05-04T16:41:46.055Z</time></trkpt><trkpt lat="55.1454628" lon="61.4033497"><ele>245.0</ele><time>2026-05-04T16:41:48.055Z</time></trkpt><trkpt lat="55.1455084" lon="61.4034425"><ele>245.00000000000003</ele><time>2026-05-04T16:41:49.056Z</time></trkpt><trkpt lat="55.1455826" lon="61.4035703"><ele>245.0</ele><time>2026-05-04T16:41:51.056Z</time></trkpt><trkpt lat="55.1456342" lon="61.4037053"><ele>245.25</ele><time>2026-05-04T16:41:54.055Z</time></trkpt><trkpt lat="55.1457026" lon="61.4038696"><ele>245.5</ele><time>2026-05-04T16:41:56.056Z</time></trkpt><trkpt lat="55.1457905" lon="61.403959"><ele>245.75</ele><time>2026-05-04T16:41:58.055Z</time></trkpt><trkpt lat="55.1459153" lon="61.4036372"><ele>246.0</ele><time>2026-05-04T16:42:00.056Z</time></trkpt><trkpt lat="55.145977" lon="61.403588"><ele>246.66666666666669</ele><time>2026-05-04T16:42:02.056Z</time></trkpt><trkpt lat="55.1459983" lon="61.4030273"><ele>247.33333333333334</ele><time>2026-05-04T16:42:05.056Z</time></trkpt><trkpt lat="55.1460277" lon="61.4031463"><ele>248.0</ele><time>2026-05-04T16:42:10.055Z</time></trkpt><trkpt lat="55.1459701" lon="61.4032402"><ele>248.0</ele><time>2026-05-04T16:42:18.055Z</time></trkpt><trkpt lat="55.1459241" lon="61.4036421"><ele>248.0</ele><time>2026-05-04T16:42:21.056Z</time></trkpt><trkpt lat="55.1458882" lon="61.4037363"><ele>248.0</ele><time>2026-05-04T16:42:26.056Z</time></trkpt><trkpt lat="55.1458231" lon="61.4037694"><ele>248.0</ele><time>2026-05-04T16:42:29.055Z</time></trkpt><trkpt lat="55.145754" lon="61.403768"><ele>248.0</ele><time>2026-05-04T16:42:37.055Z</time></trkpt><trkpt lat="55.145805" lon="61.4035376"><ele>248.0</ele><time>2026-05-04T16:48:33.641Z</time></trkpt></trkseg></trk></gpx>